<?xml version="1.0" encoding="UTF-8" standalone="no" ?>
<gpx xmlns="http://www.topografix.com/GPX/1/1" xmlns:xsi="http://www.w3.org/2001/XMLSchema-instance" xsi:schemaLocation="http://www.topografix.com/GPX/1/1 http://www.topografix.com/GPX/1/1/gpx.xsd" version="1.1" creator="VisuGPX - https://www.visugpx.com">
  <metadata>
    <name>Dans les forêts autour de Biron</name>
    <desc><![CDATA[Un tracé court et pas très dur sur des chemins bien roulant.]]></desc>
  </metadata>
  <trk>
    <name><![CDATA[29-DEC-13 10:55:00]]></name>
    <trkseg>
      <trkpt lat="44.63086" lon="0.87149">
        <ele>206.82</ele>
        <time>2013-12-29T07:33:40Z</time>
      </trkpt>
      <trkpt lat="44.63086" lon="0.8715">
        <ele>206.82</ele>
        <time>2013-12-29T07:33:50Z</time>
      </trkpt>
      <trkpt lat="44.63087" lon="0.8715">
        <ele>205.86</ele>
        <time>2013-12-29T07:34:03Z</time>
      </trkpt>
      <trkpt lat="44.63088" lon="0.87148">
        <ele>207.3</ele>
        <time>2013-12-29T07:34:16Z</time>
      </trkpt>
      <trkpt lat="44.6309" lon="0.87153">
        <ele>208.26</ele>
        <time>2013-12-29T07:34:26Z</time>
      </trkpt>
      <trkpt lat="44.63083" lon="0.8717">
        <ele>208.26</ele>
        <time>2013-12-29T07:34:39Z</time>
      </trkpt>
      <trkpt lat="44.63078" lon="0.87195">
        <ele>207.78</ele>
        <time>2013-12-29T07:34:51Z</time>
      </trkpt>
      <trkpt lat="44.63076" lon="0.87212">
        <ele>206.82</ele>
        <time>2013-12-29T07:34:54Z</time>
      </trkpt>
      <trkpt lat="44.63072" lon="0.87276">
        <ele>203.94</ele>
        <time>2013-12-29T07:35:06Z</time>
      </trkpt>
      <trkpt lat="44.63069" lon="0.87358">
        <ele>201.05</ele>
        <time>2013-12-29T07:35:18Z</time>
      </trkpt>
      <trkpt lat="44.63065" lon="0.87445">
        <ele>198.17</ele>
        <time>2013-12-29T07:35:27Z</time>
      </trkpt>
      <trkpt lat="44.63031" lon="0.87505">
        <ele>194.32</ele>
        <time>2013-12-29T07:35:34Z</time>
      </trkpt>
      <trkpt lat="44.63024" lon="0.87508">
        <ele>194.32</ele>
        <time>2013-12-29T07:35:35Z</time>
      </trkpt>
      <trkpt lat="44.62962" lon="0.87523">
        <ele>194.8</ele>
        <time>2013-12-29T07:35:47Z</time>
      </trkpt>
      <trkpt lat="44.62883" lon="0.87542">
        <ele>196.25</ele>
        <time>2013-12-29T07:36:06Z</time>
      </trkpt>
      <trkpt lat="44.62861" lon="0.87544">
        <ele>197.21</ele>
        <time>2013-12-29T07:36:13Z</time>
      </trkpt>
      <trkpt lat="44.6286" lon="0.87559">
        <ele>197.69</ele>
        <time>2013-12-29T07:36:18Z</time>
      </trkpt>
      <trkpt lat="44.62884" lon="0.87582">
        <ele>198.17</ele>
        <time>2013-12-29T07:36:30Z</time>
      </trkpt>
      <trkpt lat="44.62929" lon="0.87627">
        <ele>198.65</ele>
        <time>2013-12-29T07:36:50Z</time>
      </trkpt>
      <trkpt lat="44.62972" lon="0.87676">
        <ele>202.49</ele>
        <time>2013-12-29T07:37:09Z</time>
      </trkpt>
      <trkpt lat="44.62978" lon="0.87698">
        <ele>202.01</ele>
        <time>2013-12-29T07:37:14Z</time>
      </trkpt>
      <trkpt lat="44.62964" lon="0.87784">
        <ele>200.09</ele>
        <time>2013-12-29T07:37:29Z</time>
      </trkpt>
      <trkpt lat="44.62956" lon="0.87817">
        <ele>200.09</ele>
        <time>2013-12-29T07:37:37Z</time>
      </trkpt>
      <trkpt lat="44.62972" lon="0.8783">
        <ele>201.05</ele>
        <time>2013-12-29T07:37:48Z</time>
      </trkpt>
      <trkpt lat="44.63017" lon="0.87814">
        <ele>205.86</ele>
        <time>2013-12-29T07:38:08Z</time>
      </trkpt>
      <trkpt lat="44.63049" lon="0.8781">
        <ele>208.74</ele>
        <time>2013-12-29T07:38:22Z</time>
      </trkpt>
      <trkpt lat="44.63076" lon="0.8782">
        <ele>210.67</ele>
        <time>2013-12-29T07:38:38Z</time>
      </trkpt>
      <trkpt lat="44.63077" lon="0.87818">
        <ele>210.67</ele>
        <time>2013-12-29T07:39:00Z</time>
      </trkpt>
      <trkpt lat="44.63077" lon="0.87818">
        <ele>210.67</ele>
        <time>2013-12-29T07:39:12Z</time>
      </trkpt>
      <trkpt lat="44.63077" lon="0.87817">
        <ele>210.67</ele>
        <time>2013-12-29T07:39:33Z</time>
      </trkpt>
      <trkpt lat="44.63074" lon="0.87816">
        <ele>210.19</ele>
        <time>2013-12-29T07:39:46Z</time>
      </trkpt>
      <trkpt lat="44.63073" lon="0.87817">
        <ele>209.7</ele>
        <time>2013-12-29T07:39:59Z</time>
      </trkpt>
      <trkpt lat="44.63073" lon="0.87817">
        <ele>212.59</ele>
        <time>2013-12-29T07:40:18Z</time>
      </trkpt>
      <trkpt lat="44.63073" lon="0.87816">
        <ele>213.55</ele>
        <time>2013-12-29T07:40:34Z</time>
      </trkpt>
      <trkpt lat="44.63073" lon="0.87818">
        <ele>213.55</ele>
        <time>2013-12-29T07:40:53Z</time>
      </trkpt>
      <trkpt lat="44.63073" lon="0.87815">
        <ele>212.11</ele>
        <time>2013-12-29T07:41:11Z</time>
      </trkpt>
      <trkpt lat="44.63072" lon="0.87813">
        <ele>213.55</ele>
        <time>2013-12-29T07:41:27Z</time>
      </trkpt>
      <trkpt lat="44.63073" lon="0.87814">
        <ele>214.03</ele>
        <time>2013-12-29T07:41:49Z</time>
      </trkpt>
      <trkpt lat="44.63074" lon="0.87813">
        <ele>211.15</ele>
        <time>2013-12-29T07:42:08Z</time>
      </trkpt>
      <trkpt lat="44.6304" lon="0.87803">
        <ele>209.22</ele>
        <time>2013-12-29T07:42:21Z</time>
      </trkpt>
      <trkpt lat="44.62999" lon="0.87816">
        <ele>206.82</ele>
        <time>2013-12-29T07:42:31Z</time>
      </trkpt>
      <trkpt lat="44.62963" lon="0.87822">
        <ele>203.46</ele>
        <time>2013-12-29T07:42:42Z</time>
      </trkpt>
      <trkpt lat="44.62961" lon="0.8782">
        <ele>202.98</ele>
        <time>2013-12-29T07:42:43Z</time>
      </trkpt>
      <trkpt lat="44.62969" lon="0.87774">
        <ele>202.01</ele>
        <time>2013-12-29T07:42:53Z</time>
      </trkpt>
      <trkpt lat="44.62981" lon="0.87691">
        <ele>203.94</ele>
        <time>2013-12-29T07:43:10Z</time>
      </trkpt>
      <trkpt lat="44.62952" lon="0.87643">
        <ele>202.98</ele>
        <time>2013-12-29T07:43:22Z</time>
      </trkpt>
      <trkpt lat="44.62875" lon="0.87568">
        <ele>198.65</ele>
        <time>2013-12-29T07:43:41Z</time>
      </trkpt>
      <trkpt lat="44.62863" lon="0.87557">
        <ele>197.69</ele>
        <time>2013-12-29T07:43:45Z</time>
      </trkpt>
      <trkpt lat="44.62875" lon="0.87544">
        <ele>196.73</ele>
        <time>2013-12-29T07:43:51Z</time>
      </trkpt>
      <trkpt lat="44.62965" lon="0.87527">
        <ele>194.32</ele>
        <time>2013-12-29T07:44:09Z</time>
      </trkpt>
      <trkpt lat="44.63028" lon="0.87509">
        <ele>193.84</ele>
        <time>2013-12-29T07:44:22Z</time>
      </trkpt>
      <trkpt lat="44.63066" lon="0.87464">
        <ele>195.28</ele>
        <time>2013-12-29T07:44:33Z</time>
      </trkpt>
      <trkpt lat="44.63068" lon="0.87451">
        <ele>195.77</ele>
        <time>2013-12-29T07:44:35Z</time>
      </trkpt>
      <trkpt lat="44.63074" lon="0.87353">
        <ele>202.01</ele>
        <time>2013-12-29T07:44:53Z</time>
      </trkpt>
      <trkpt lat="44.63076" lon="0.87269">
        <ele>206.34</ele>
        <time>2013-12-29T07:45:10Z</time>
      </trkpt>
      <trkpt lat="44.63083" lon="0.8718">
        <ele>213.07</ele>
        <time>2013-12-29T07:45:29Z</time>
      </trkpt>
      <trkpt lat="44.63103" lon="0.87136">
        <ele>216.43</ele>
        <time>2013-12-29T07:45:45Z</time>
      </trkpt>
      <trkpt lat="44.63147" lon="0.87113">
        <ele>217.4</ele>
        <time>2013-12-29T07:46:03Z</time>
      </trkpt>
      <trkpt lat="44.63211" lon="0.87115">
        <ele>217.88</ele>
        <time>2013-12-29T07:46:21Z</time>
      </trkpt>
      <trkpt lat="44.63266" lon="0.87162">
        <ele>216.91</ele>
        <time>2013-12-29T07:46:39Z</time>
      </trkpt>
      <trkpt lat="44.6329" lon="0.87231">
        <ele>216.91</ele>
        <time>2013-12-29T07:46:55Z</time>
      </trkpt>
      <trkpt lat="44.63311" lon="0.8732">
        <ele>216.43</ele>
        <time>2013-12-29T07:47:14Z</time>
      </trkpt>
      <trkpt lat="44.63313" lon="0.87325">
        <ele>216.43</ele>
        <time>2013-12-29T07:47:15Z</time>
      </trkpt>
      <trkpt lat="44.63359" lon="0.87404">
        <ele>212.11</ele>
        <time>2013-12-29T07:47:27Z</time>
      </trkpt>
      <trkpt lat="44.63418" lon="0.87544">
        <ele>204.42</ele>
        <time>2013-12-29T07:47:42Z</time>
      </trkpt>
      <trkpt lat="44.63468" lon="0.87691">
        <ele>201.05</ele>
        <time>2013-12-29T07:47:58Z</time>
      </trkpt>
      <trkpt lat="44.63497" lon="0.87812">
        <ele>199.13</ele>
        <time>2013-12-29T07:48:13Z</time>
      </trkpt>
      <trkpt lat="44.6351" lon="0.87839">
        <ele>199.61</ele>
        <time>2013-12-29T07:48:18Z</time>
      </trkpt>
      <trkpt lat="44.63564" lon="0.87901">
        <ele>201.53</ele>
        <time>2013-12-29T07:48:34Z</time>
      </trkpt>
      <trkpt lat="44.63599" lon="0.87938">
        <ele>206.82</ele>
        <time>2013-12-29T07:48:48Z</time>
      </trkpt>
      <trkpt lat="44.63637" lon="0.87965">
        <ele>213.07</ele>
        <time>2013-12-29T07:49:00Z</time>
      </trkpt>
      <trkpt lat="44.63706" lon="0.88004">
        <ele>214.03</ele>
        <time>2013-12-29T07:49:13Z</time>
      </trkpt>
      <trkpt lat="44.63797" lon="0.88057">
        <ele>212.11</ele>
        <time>2013-12-29T07:49:28Z</time>
      </trkpt>
      <trkpt lat="44.63917" lon="0.88099">
        <ele>204.9</ele>
        <time>2013-12-29T07:49:44Z</time>
      </trkpt>
      <trkpt lat="44.64006" lon="0.88129">
        <ele>199.13</ele>
        <time>2013-12-29T07:49:56Z</time>
      </trkpt>
      <trkpt lat="44.64059" lon="0.88149">
        <ele>196.25</ele>
        <time>2013-12-29T07:50:05Z</time>
      </trkpt>
      <trkpt lat="44.64073" lon="0.88111">
        <ele>195.28</ele>
        <time>2013-12-29T07:50:14Z</time>
      </trkpt>
      <trkpt lat="44.64095" lon="0.88051">
        <ele>196.25</ele>
        <time>2013-12-29T07:50:27Z</time>
      </trkpt>
      <trkpt lat="44.641" lon="0.88005">
        <ele>198.17</ele>
        <time>2013-12-29T07:50:38Z</time>
      </trkpt>
      <trkpt lat="44.64109" lon="0.87968">
        <ele>202.98</ele>
        <time>2013-12-29T07:50:49Z</time>
      </trkpt>
      <trkpt lat="44.64125" lon="0.8794">
        <ele>207.3</ele>
        <time>2013-12-29T07:51:01Z</time>
      </trkpt>
      <trkpt lat="44.64151" lon="0.87916">
        <ele>207.3</ele>
        <time>2013-12-29T07:51:14Z</time>
      </trkpt>
      <trkpt lat="44.6419" lon="0.87901">
        <ele>207.78</ele>
        <time>2013-12-29T07:51:30Z</time>
      </trkpt>
      <trkpt lat="44.64226" lon="0.87897">
        <ele>208.74</ele>
        <time>2013-12-29T07:51:43Z</time>
      </trkpt>
      <trkpt lat="44.64256" lon="0.87871">
        <ele>204.42</ele>
        <time>2013-12-29T07:51:55Z</time>
      </trkpt>
      <trkpt lat="44.64299" lon="0.87852">
        <ele>200.09</ele>
        <time>2013-12-29T07:52:08Z</time>
      </trkpt>
      <trkpt lat="44.64316" lon="0.87845">
        <ele>198.17</ele>
        <time>2013-12-29T07:52:20Z</time>
      </trkpt>
      <trkpt lat="44.64334" lon="0.87838">
        <ele>199.13</ele>
        <time>2013-12-29T07:52:33Z</time>
      </trkpt>
      <trkpt lat="44.64345" lon="0.87831">
        <ele>199.61</ele>
        <time>2013-12-29T07:52:58Z</time>
      </trkpt>
      <trkpt lat="44.64358" lon="0.87822">
        <ele>203.94</ele>
        <time>2013-12-29T07:53:14Z</time>
      </trkpt>
      <trkpt lat="44.6436" lon="0.8782">
        <ele>204.42</ele>
        <time>2013-12-29T07:53:21Z</time>
      </trkpt>
      <trkpt lat="44.64364" lon="0.8782">
        <ele>204.42</ele>
        <time>2013-12-29T07:53:24Z</time>
      </trkpt>
      <trkpt lat="44.64392" lon="0.87809">
        <ele>204.42</ele>
        <time>2013-12-29T07:53:38Z</time>
      </trkpt>
      <trkpt lat="44.64429" lon="0.87794">
        <ele>204.9</ele>
        <time>2013-12-29T07:53:51Z</time>
      </trkpt>
      <trkpt lat="44.64459" lon="0.87782">
        <ele>205.38</ele>
        <time>2013-12-29T07:54:03Z</time>
      </trkpt>
      <trkpt lat="44.64475" lon="0.87779">
        <ele>205.86</ele>
        <time>2013-12-29T07:54:10Z</time>
      </trkpt>
      <trkpt lat="44.6448" lon="0.8778">
        <ele>205.86</ele>
        <time>2013-12-29T07:54:13Z</time>
      </trkpt>
      <trkpt lat="44.6449" lon="0.87769">
        <ele>205.86</ele>
        <time>2013-12-29T07:54:18Z</time>
      </trkpt>
      <trkpt lat="44.64503" lon="0.87743">
        <ele>204.42</ele>
        <time>2013-12-29T07:54:27Z</time>
      </trkpt>
      <trkpt lat="44.64516" lon="0.8772">
        <ele>202.98</ele>
        <time>2013-12-29T07:54:34Z</time>
      </trkpt>
      <trkpt lat="44.64534" lon="0.87668">
        <ele>201.53</ele>
        <time>2013-12-29T07:54:50Z</time>
      </trkpt>
      <trkpt lat="44.64547" lon="0.87625">
        <ele>199.13</ele>
        <time>2013-12-29T07:55:03Z</time>
      </trkpt>
      <trkpt lat="44.64553" lon="0.87621">
        <ele>196.73</ele>
        <time>2013-12-29T07:55:12Z</time>
      </trkpt>
      <trkpt lat="44.64561" lon="0.87644">
        <ele>193.84</ele>
        <time>2013-12-29T07:55:29Z</time>
      </trkpt>
      <trkpt lat="44.64563" lon="0.87646">
        <ele>192.88</ele>
        <time>2013-12-29T07:55:43Z</time>
      </trkpt>
      <trkpt lat="44.64572" lon="0.87662">
        <ele>190</ele>
        <time>2013-12-29T07:55:59Z</time>
      </trkpt>
      <trkpt lat="44.64582" lon="0.87686">
        <ele>193.36</ele>
        <time>2013-12-29T07:56:17Z</time>
      </trkpt>
      <trkpt lat="44.64585" lon="0.87695">
        <ele>194.32</ele>
        <time>2013-12-29T07:56:25Z</time>
      </trkpt>
      <trkpt lat="44.64594" lon="0.87708">
        <ele>200.09</ele>
        <time>2013-12-29T07:56:43Z</time>
      </trkpt>
      <trkpt lat="44.64601" lon="0.87705">
        <ele>201.05</ele>
        <time>2013-12-29T07:56:47Z</time>
      </trkpt>
      <trkpt lat="44.64633" lon="0.87679">
        <ele>200.57</ele>
        <time>2013-12-29T07:57:00Z</time>
      </trkpt>
      <trkpt lat="44.64683" lon="0.87654">
        <ele>199.13</ele>
        <time>2013-12-29T07:57:15Z</time>
      </trkpt>
      <trkpt lat="44.64704" lon="0.87641">
        <ele>199.61</ele>
        <time>2013-12-29T07:57:26Z</time>
      </trkpt>
      <trkpt lat="44.64705" lon="0.87639">
        <ele>199.61</ele>
        <time>2013-12-29T07:57:27Z</time>
      </trkpt>
      <trkpt lat="44.64731" lon="0.87626">
        <ele>197.21</ele>
        <time>2013-12-29T07:57:42Z</time>
      </trkpt>
      <trkpt lat="44.6475" lon="0.876">
        <ele>194.32</ele>
        <time>2013-12-29T07:57:55Z</time>
      </trkpt>
      <trkpt lat="44.64755" lon="0.87593">
        <ele>194.32</ele>
        <time>2013-12-29T07:57:59Z</time>
      </trkpt>
      <trkpt lat="44.64762" lon="0.8759">
        <ele>194.32</ele>
        <time>2013-12-29T07:58:03Z</time>
      </trkpt>
      <trkpt lat="44.64776" lon="0.87578">
        <ele>192.4</ele>
        <time>2013-12-29T07:58:16Z</time>
      </trkpt>
      <trkpt lat="44.64785" lon="0.87567">
        <ele>194.8</ele>
        <time>2013-12-29T07:58:31Z</time>
      </trkpt>
      <trkpt lat="44.64792" lon="0.87561">
        <ele>194.32</ele>
        <time>2013-12-29T07:58:44Z</time>
      </trkpt>
      <trkpt lat="44.64802" lon="0.87558">
        <ele>190</ele>
        <time>2013-12-29T07:58:54Z</time>
      </trkpt>
      <trkpt lat="44.64812" lon="0.87554">
        <ele>185.19</ele>
        <time>2013-12-29T07:59:04Z</time>
      </trkpt>
      <trkpt lat="44.64824" lon="0.87544">
        <ele>180.38</ele>
        <time>2013-12-29T07:59:20Z</time>
      </trkpt>
      <trkpt lat="44.64827" lon="0.87539">
        <ele>178.94</ele>
        <time>2013-12-29T07:59:30Z</time>
      </trkpt>
      <trkpt lat="44.64839" lon="0.87529">
        <ele>177.98</ele>
        <time>2013-12-29T07:59:46Z</time>
      </trkpt>
      <trkpt lat="44.6485" lon="0.87527">
        <ele>177.02</ele>
        <time>2013-12-29T08:00:00Z</time>
      </trkpt>
      <trkpt lat="44.64856" lon="0.87523">
        <ele>175.58</ele>
        <time>2013-12-29T08:00:11Z</time>
      </trkpt>
      <trkpt lat="44.64862" lon="0.87521">
        <ele>174.14</ele>
        <time>2013-12-29T08:00:19Z</time>
      </trkpt>
      <trkpt lat="44.64864" lon="0.8752">
        <ele>173.66</ele>
        <time>2013-12-29T08:00:21Z</time>
      </trkpt>
      <trkpt lat="44.64869" lon="0.87519">
        <ele>172.21</ele>
        <time>2013-12-29T08:00:28Z</time>
      </trkpt>
      <trkpt lat="44.64879" lon="0.87488">
        <ele>168.85</ele>
        <time>2013-12-29T08:00:39Z</time>
      </trkpt>
      <trkpt lat="44.64908" lon="0.87472">
        <ele>163.08</ele>
        <time>2013-12-29T08:00:50Z</time>
      </trkpt>
      <trkpt lat="44.64917" lon="0.87456">
        <ele>158.27</ele>
        <time>2013-12-29T08:00:58Z</time>
      </trkpt>
      <trkpt lat="44.64921" lon="0.87414">
        <ele>153.47</ele>
        <time>2013-12-29T08:01:09Z</time>
      </trkpt>
      <trkpt lat="44.64941" lon="0.87398">
        <ele>149.62</ele>
        <time>2013-12-29T08:01:24Z</time>
      </trkpt>
      <trkpt lat="44.64957" lon="0.87394">
        <ele>148.18</ele>
        <time>2013-12-29T08:01:38Z</time>
      </trkpt>
      <trkpt lat="44.6496" lon="0.87395">
        <ele>148.66</ele>
        <time>2013-12-29T08:01:41Z</time>
      </trkpt>
      <trkpt lat="44.64978" lon="0.87396">
        <ele>150.1</ele>
        <time>2013-12-29T08:01:52Z</time>
      </trkpt>
      <trkpt lat="44.64997" lon="0.87358">
        <ele>150.1</ele>
        <time>2013-12-29T08:02:07Z</time>
      </trkpt>
      <trkpt lat="44.65022" lon="0.87304">
        <ele>152.03</ele>
        <time>2013-12-29T08:02:22Z</time>
      </trkpt>
      <trkpt lat="44.65041" lon="0.87244">
        <ele>155.39</ele>
        <time>2013-12-29T08:02:35Z</time>
      </trkpt>
      <trkpt lat="44.65067" lon="0.87185">
        <ele>154.43</ele>
        <time>2013-12-29T08:02:48Z</time>
      </trkpt>
      <trkpt lat="44.65119" lon="0.87115">
        <ele>148.18</ele>
        <time>2013-12-29T08:03:01Z</time>
      </trkpt>
      <trkpt lat="44.65178" lon="0.8706">
        <ele>138.57</ele>
        <time>2013-12-29T08:03:17Z</time>
      </trkpt>
      <trkpt lat="44.65221" lon="0.87027">
        <ele>133.28</ele>
        <time>2013-12-29T08:03:29Z</time>
      </trkpt>
      <trkpt lat="44.65265" lon="0.86993">
        <ele>131.84</ele>
        <time>2013-12-29T08:03:37Z</time>
      </trkpt>
      <trkpt lat="44.653" lon="0.86967">
        <ele>130.88</ele>
        <time>2013-12-29T08:03:44Z</time>
      </trkpt>
      <trkpt lat="44.65315" lon="0.86943">
        <ele>130.88</ele>
        <time>2013-12-29T08:03:48Z</time>
      </trkpt>
      <trkpt lat="44.65332" lon="0.8692">
        <ele>131.36</ele>
        <time>2013-12-29T08:03:52Z</time>
      </trkpt>
      <trkpt lat="44.65344" lon="0.86894">
        <ele>131.36</ele>
        <time>2013-12-29T08:03:56Z</time>
      </trkpt>
      <trkpt lat="44.65356" lon="0.86851">
        <ele>132.8</ele>
        <time>2013-12-29T08:04:02Z</time>
      </trkpt>
      <trkpt lat="44.65371" lon="0.86741">
        <ele>137.13</ele>
        <time>2013-12-29T08:04:17Z</time>
      </trkpt>
      <trkpt lat="44.65382" lon="0.86704">
        <ele>140.01</ele>
        <time>2013-12-29T08:04:26Z</time>
      </trkpt>
      <trkpt lat="44.6541" lon="0.86693">
        <ele>141.93</ele>
        <time>2013-12-29T08:04:37Z</time>
      </trkpt>
      <trkpt lat="44.65436" lon="0.86675">
        <ele>147.22</ele>
        <time>2013-12-29T08:04:49Z</time>
      </trkpt>
      <trkpt lat="44.65476" lon="0.86637">
        <ele>152.03</ele>
        <time>2013-12-29T08:05:05Z</time>
      </trkpt>
      <trkpt lat="44.65489" lon="0.86599">
        <ele>153.47</ele>
        <time>2013-12-29T08:05:14Z</time>
      </trkpt>
      <trkpt lat="44.65483" lon="0.86493">
        <ele>154.43</ele>
        <time>2013-12-29T08:05:26Z</time>
      </trkpt>
      <trkpt lat="44.65479" lon="0.86406">
        <ele>153.47</ele>
        <time>2013-12-29T08:05:37Z</time>
      </trkpt>
      <trkpt lat="44.65481" lon="0.86379">
        <ele>153.47</ele>
        <time>2013-12-29T08:05:41Z</time>
      </trkpt>
      <trkpt lat="44.65506" lon="0.86292">
        <ele>155.87</ele>
        <time>2013-12-29T08:05:56Z</time>
      </trkpt>
      <trkpt lat="44.65513" lon="0.86264">
        <ele>155.87</ele>
        <time>2013-12-29T08:06:01Z</time>
      </trkpt>
      <trkpt lat="44.65534" lon="0.86261">
        <ele>154.43</ele>
        <time>2013-12-29T08:06:10Z</time>
      </trkpt>
      <trkpt lat="44.65547" lon="0.86246">
        <ele>150.58</ele>
        <time>2013-12-29T08:06:15Z</time>
      </trkpt>
      <trkpt lat="44.65558" lon="0.86211">
        <ele>149.14</ele>
        <time>2013-12-29T08:06:21Z</time>
      </trkpt>
      <trkpt lat="44.65598" lon="0.86172">
        <ele>138.57</ele>
        <time>2013-12-29T08:06:34Z</time>
      </trkpt>
      <trkpt lat="44.65601" lon="0.86166">
        <ele>137.13</ele>
        <time>2013-12-29T08:06:36Z</time>
      </trkpt>
      <trkpt lat="44.65598" lon="0.86148">
        <ele>134.72</ele>
        <time>2013-12-29T08:06:40Z</time>
      </trkpt>
      <trkpt lat="44.65564" lon="0.86068">
        <ele>126.55</ele>
        <time>2013-12-29T08:06:57Z</time>
      </trkpt>
      <trkpt lat="44.6552" lon="0.85967">
        <ele>121.26</ele>
        <time>2013-12-29T08:07:17Z</time>
      </trkpt>
      <trkpt lat="44.65505" lon="0.85932">
        <ele>120.78</ele>
        <time>2013-12-29T08:07:25Z</time>
      </trkpt>
      <trkpt lat="44.65514" lon="0.85919">
        <ele>121.74</ele>
        <time>2013-12-29T08:07:29Z</time>
      </trkpt>
      <trkpt lat="44.65586" lon="0.85833">
        <ele>121.74</ele>
        <time>2013-12-29T08:07:52Z</time>
      </trkpt>
      <trkpt lat="44.65617" lon="0.85784">
        <ele>121.74</ele>
        <time>2013-12-29T08:08:07Z</time>
      </trkpt>
      <trkpt lat="44.65634" lon="0.85753">
        <ele>123.19</ele>
        <time>2013-12-29T08:08:23Z</time>
      </trkpt>
      <trkpt lat="44.65636" lon="0.85755">
        <ele>124.15</ele>
        <time>2013-12-29T08:08:26Z</time>
      </trkpt>
      <trkpt lat="44.65647" lon="0.85791">
        <ele>128.95</ele>
        <time>2013-12-29T08:08:40Z</time>
      </trkpt>
      <trkpt lat="44.65663" lon="0.85853">
        <ele>131.36</ele>
        <time>2013-12-29T08:08:56Z</time>
      </trkpt>
      <trkpt lat="44.65677" lon="0.85908">
        <ele>134.72</ele>
        <time>2013-12-29T08:09:09Z</time>
      </trkpt>
      <trkpt lat="44.6568" lon="0.85915">
        <ele>135.2</ele>
        <time>2013-12-29T08:09:11Z</time>
      </trkpt>
      <trkpt lat="44.65707" lon="0.85912">
        <ele>135.2</ele>
        <time>2013-12-29T08:09:23Z</time>
      </trkpt>
      <trkpt lat="44.65729" lon="0.85894">
        <ele>137.13</ele>
        <time>2013-12-29T08:09:38Z</time>
      </trkpt>
      <trkpt lat="44.65747" lon="0.85861">
        <ele>141.45</ele>
        <time>2013-12-29T08:09:51Z</time>
      </trkpt>
      <trkpt lat="44.65768" lon="0.85831">
        <ele>148.66</ele>
        <time>2013-12-29T08:10:05Z</time>
      </trkpt>
      <trkpt lat="44.6577" lon="0.85831">
        <ele>148.66</ele>
        <time>2013-12-29T08:10:06Z</time>
      </trkpt>
      <trkpt lat="44.65781" lon="0.8583">
        <ele>151.06</ele>
        <time>2013-12-29T08:10:13Z</time>
      </trkpt>
      <trkpt lat="44.65797" lon="0.85815">
        <ele>153.47</ele>
        <time>2013-12-29T08:10:24Z</time>
      </trkpt>
      <trkpt lat="44.65816" lon="0.85808">
        <ele>154.91</ele>
        <time>2013-12-29T08:10:35Z</time>
      </trkpt>
      <trkpt lat="44.6585" lon="0.85803">
        <ele>154.91</ele>
        <time>2013-12-29T08:10:53Z</time>
      </trkpt>
      <trkpt lat="44.65882" lon="0.85793">
        <ele>155.39</ele>
        <time>2013-12-29T08:11:08Z</time>
      </trkpt>
      <trkpt lat="44.65921" lon="0.85782">
        <ele>153.95</ele>
        <time>2013-12-29T08:11:24Z</time>
      </trkpt>
      <trkpt lat="44.65934" lon="0.85777">
        <ele>153.95</ele>
        <time>2013-12-29T08:11:30Z</time>
      </trkpt>
      <trkpt lat="44.65968" lon="0.85783">
        <ele>157.79</ele>
        <time>2013-12-29T08:11:45Z</time>
      </trkpt>
      <trkpt lat="44.65982" lon="0.85778">
        <ele>159.24</ele>
        <time>2013-12-29T08:11:58Z</time>
      </trkpt>
      <trkpt lat="44.65987" lon="0.85774">
        <ele>160.2</ele>
        <time>2013-12-29T08:12:15Z</time>
      </trkpt>
      <trkpt lat="44.65993" lon="0.85775">
        <ele>163.08</ele>
        <time>2013-12-29T08:12:40Z</time>
      </trkpt>
      <trkpt lat="44.6599" lon="0.85766">
        <ele>161.16</ele>
        <time>2013-12-29T08:12:57Z</time>
      </trkpt>
      <trkpt lat="44.65982" lon="0.85758">
        <ele>164.04</ele>
        <time>2013-12-29T08:13:13Z</time>
      </trkpt>
      <trkpt lat="44.65981" lon="0.85745">
        <ele>169.33</ele>
        <time>2013-12-29T08:13:31Z</time>
      </trkpt>
      <trkpt lat="44.65985" lon="0.85724">
        <ele>170.29</ele>
        <time>2013-12-29T08:13:48Z</time>
      </trkpt>
      <trkpt lat="44.65983" lon="0.85709">
        <ele>171.25</ele>
        <time>2013-12-29T08:14:00Z</time>
      </trkpt>
      <trkpt lat="44.65979" lon="0.85677">
        <ele>173.17</ele>
        <time>2013-12-29T08:14:20Z</time>
      </trkpt>
      <trkpt lat="44.65978" lon="0.85647">
        <ele>175.58</ele>
        <time>2013-12-29T08:14:39Z</time>
      </trkpt>
      <trkpt lat="44.65978" lon="0.85644">
        <ele>175.58</ele>
        <time>2013-12-29T08:14:41Z</time>
      </trkpt>
      <trkpt lat="44.65972" lon="0.85622">
        <ele>173.66</ele>
        <time>2013-12-29T08:14:59Z</time>
      </trkpt>
      <trkpt lat="44.65974" lon="0.85617">
        <ele>169.33</ele>
        <time>2013-12-29T08:15:16Z</time>
      </trkpt>
      <trkpt lat="44.65975" lon="0.85613">
        <ele>168.85</ele>
        <time>2013-12-29T08:15:21Z</time>
      </trkpt>
      <trkpt lat="44.66003" lon="0.85604">
        <ele>167.41</ele>
        <time>2013-12-29T08:15:36Z</time>
      </trkpt>
      <trkpt lat="44.66038" lon="0.85586">
        <ele>166.45</ele>
        <time>2013-12-29T08:15:49Z</time>
      </trkpt>
      <trkpt lat="44.66071" lon="0.85568">
        <ele>165.96</ele>
        <time>2013-12-29T08:16:03Z</time>
      </trkpt>
      <trkpt lat="44.66094" lon="0.85527">
        <ele>168.85</ele>
        <time>2013-12-29T08:16:17Z</time>
      </trkpt>
      <trkpt lat="44.66134" lon="0.85496">
        <ele>172.21</ele>
        <time>2013-12-29T08:16:33Z</time>
      </trkpt>
      <trkpt lat="44.66177" lon="0.85479">
        <ele>174.62</ele>
        <time>2013-12-29T08:16:51Z</time>
      </trkpt>
      <trkpt lat="44.6621" lon="0.8547">
        <ele>177.98</ele>
        <time>2013-12-29T08:17:06Z</time>
      </trkpt>
      <trkpt lat="44.66248" lon="0.8545">
        <ele>181.83</ele>
        <time>2013-12-29T08:17:23Z</time>
      </trkpt>
      <trkpt lat="44.66289" lon="0.85451">
        <ele>184.71</ele>
        <time>2013-12-29T08:17:40Z</time>
      </trkpt>
      <trkpt lat="44.66327" lon="0.85452">
        <ele>186.63</ele>
        <time>2013-12-29T08:17:54Z</time>
      </trkpt>
      <trkpt lat="44.66379" lon="0.85445">
        <ele>188.56</ele>
        <time>2013-12-29T08:18:11Z</time>
      </trkpt>
      <trkpt lat="44.6642" lon="0.85443">
        <ele>189.04</ele>
        <time>2013-12-29T08:18:24Z</time>
      </trkpt>
      <trkpt lat="44.66475" lon="0.85436">
        <ele>192.88</ele>
        <time>2013-12-29T08:18:41Z</time>
      </trkpt>
      <trkpt lat="44.66524" lon="0.85414">
        <ele>190</ele>
        <time>2013-12-29T08:18:55Z</time>
      </trkpt>
      <trkpt lat="44.66565" lon="0.85404">
        <ele>189.04</ele>
        <time>2013-12-29T08:19:10Z</time>
      </trkpt>
      <trkpt lat="44.66593" lon="0.85412">
        <ele>188.56</ele>
        <time>2013-12-29T08:19:22Z</time>
      </trkpt>
      <trkpt lat="44.66629" lon="0.85411">
        <ele>190.48</ele>
        <time>2013-12-29T08:19:36Z</time>
      </trkpt>
      <trkpt lat="44.66631" lon="0.85409">
        <ele>190.48</ele>
        <time>2013-12-29T08:19:37Z</time>
      </trkpt>
      <trkpt lat="44.66638" lon="0.85408">
        <ele>191.92</ele>
        <time>2013-12-29T08:19:41Z</time>
      </trkpt>
      <trkpt lat="44.66658" lon="0.85417">
        <ele>198.65</ele>
        <time>2013-12-29T08:19:55Z</time>
      </trkpt>
      <trkpt lat="44.66672" lon="0.85419">
        <ele>200.09</ele>
        <time>2013-12-29T08:20:09Z</time>
      </trkpt>
      <trkpt lat="44.66684" lon="0.85425">
        <ele>201.53</ele>
        <time>2013-12-29T08:20:25Z</time>
      </trkpt>
      <trkpt lat="44.66692" lon="0.85434">
        <ele>199.13</ele>
        <time>2013-12-29T08:20:39Z</time>
      </trkpt>
      <trkpt lat="44.66706" lon="0.85435">
        <ele>199.13</ele>
        <time>2013-12-29T08:20:52Z</time>
      </trkpt>
      <trkpt lat="44.6674" lon="0.85446">
        <ele>199.61</ele>
        <time>2013-12-29T08:21:05Z</time>
      </trkpt>
      <trkpt lat="44.66779" lon="0.85456">
        <ele>199.13</ele>
        <time>2013-12-29T08:21:21Z</time>
      </trkpt>
      <trkpt lat="44.66811" lon="0.85475">
        <ele>200.57</ele>
        <time>2013-12-29T08:21:34Z</time>
      </trkpt>
      <trkpt lat="44.66799" lon="0.85526">
        <ele>201.53</ele>
        <time>2013-12-29T08:21:48Z</time>
      </trkpt>
      <trkpt lat="44.66801" lon="0.85557">
        <ele>201.53</ele>
        <time>2013-12-29T08:21:58Z</time>
      </trkpt>
      <trkpt lat="44.66784" lon="0.85578">
        <ele>202.98</ele>
        <time>2013-12-29T08:22:07Z</time>
      </trkpt>
      <trkpt lat="44.66777" lon="0.85583">
        <ele>202.01</ele>
        <time>2013-12-29T08:22:10Z</time>
      </trkpt>
      <trkpt lat="44.66791" lon="0.85624">
        <ele>204.42</ele>
        <time>2013-12-29T08:22:24Z</time>
      </trkpt>
      <trkpt lat="44.66796" lon="0.85657">
        <ele>202.49</ele>
        <time>2013-12-29T08:22:35Z</time>
      </trkpt>
      <trkpt lat="44.66799" lon="0.85674">
        <ele>202.49</ele>
        <time>2013-12-29T08:22:48Z</time>
      </trkpt>
      <trkpt lat="44.66801" lon="0.8568">
        <ele>200.09</ele>
        <time>2013-12-29T08:23:15Z</time>
      </trkpt>
      <trkpt lat="44.66813" lon="0.85675">
        <ele>198.65</ele>
        <time>2013-12-29T08:23:31Z</time>
      </trkpt>
      <trkpt lat="44.66816" lon="0.85675">
        <ele>198.65</ele>
        <time>2013-12-29T08:23:43Z</time>
      </trkpt>
      <trkpt lat="44.66829" lon="0.85685">
        <ele>199.13</ele>
        <time>2013-12-29T08:23:51Z</time>
      </trkpt>
      <trkpt lat="44.66851" lon="0.85728">
        <ele>201.53</ele>
        <time>2013-12-29T08:24:07Z</time>
      </trkpt>
      <trkpt lat="44.6688" lon="0.85756">
        <ele>203.46</ele>
        <time>2013-12-29T08:24:20Z</time>
      </trkpt>
      <trkpt lat="44.66883" lon="0.8576">
        <ele>203.46</ele>
        <time>2013-12-29T08:24:22Z</time>
      </trkpt>
      <trkpt lat="44.66885" lon="0.85768">
        <ele>203.94</ele>
        <time>2013-12-29T08:24:26Z</time>
      </trkpt>
      <trkpt lat="44.66884" lon="0.85812">
        <ele>205.38</ele>
        <time>2013-12-29T08:24:40Z</time>
      </trkpt>
      <trkpt lat="44.66899" lon="0.85854">
        <ele>201.05</ele>
        <time>2013-12-29T08:24:53Z</time>
      </trkpt>
      <trkpt lat="44.66934" lon="0.85886">
        <ele>200.57</ele>
        <time>2013-12-29T08:25:08Z</time>
      </trkpt>
      <trkpt lat="44.66967" lon="0.85909">
        <ele>200.57</ele>
        <time>2013-12-29T08:25:20Z</time>
      </trkpt>
      <trkpt lat="44.67009" lon="0.85941">
        <ele>202.49</ele>
        <time>2013-12-29T08:25:33Z</time>
      </trkpt>
      <trkpt lat="44.67054" lon="0.85981">
        <ele>204.42</ele>
        <time>2013-12-29T08:25:46Z</time>
      </trkpt>
      <trkpt lat="44.67107" lon="0.86043">
        <ele>205.86</ele>
        <time>2013-12-29T08:26:03Z</time>
      </trkpt>
      <trkpt lat="44.67151" lon="0.86115">
        <ele>206.82</ele>
        <time>2013-12-29T08:26:18Z</time>
      </trkpt>
      <trkpt lat="44.6718" lon="0.8617">
        <ele>207.3</ele>
        <time>2013-12-29T08:26:28Z</time>
      </trkpt>
      <trkpt lat="44.67222" lon="0.86257">
        <ele>205.38</ele>
        <time>2013-12-29T08:26:45Z</time>
      </trkpt>
      <trkpt lat="44.67226" lon="0.86302">
        <ele>203.94</ele>
        <time>2013-12-29T08:26:55Z</time>
      </trkpt>
      <trkpt lat="44.67189" lon="0.86327">
        <ele>201.53</ele>
        <time>2013-12-29T08:27:04Z</time>
      </trkpt>
      <trkpt lat="44.67179" lon="0.86338">
        <ele>200.57</ele>
        <time>2013-12-29T08:27:07Z</time>
      </trkpt>
      <trkpt lat="44.67155" lon="0.8638">
        <ele>198.65</ele>
        <time>2013-12-29T08:27:15Z</time>
      </trkpt>
      <trkpt lat="44.67092" lon="0.86445">
        <ele>196.73</ele>
        <time>2013-12-29T08:27:31Z</time>
      </trkpt>
      <trkpt lat="44.67055" lon="0.8647">
        <ele>196.25</ele>
        <time>2013-12-29T08:27:43Z</time>
      </trkpt>
      <trkpt lat="44.67025" lon="0.8646">
        <ele>200.09</ele>
        <time>2013-12-29T08:27:55Z</time>
      </trkpt>
      <trkpt lat="44.67019" lon="0.86452">
        <ele>200.57</ele>
        <time>2013-12-29T08:27:57Z</time>
      </trkpt>
      <trkpt lat="44.66976" lon="0.86459">
        <ele>201.05</ele>
        <time>2013-12-29T08:28:08Z</time>
      </trkpt>
      <trkpt lat="44.66958" lon="0.8647">
        <ele>199.61</ele>
        <time>2013-12-29T08:28:12Z</time>
      </trkpt>
      <trkpt lat="44.66899" lon="0.86538">
        <ele>193.36</ele>
        <time>2013-12-29T08:28:27Z</time>
      </trkpt>
      <trkpt lat="44.6689" lon="0.86546">
        <ele>192.88</ele>
        <time>2013-12-29T08:28:29Z</time>
      </trkpt>
      <trkpt lat="44.66824" lon="0.86587">
        <ele>190.48</ele>
        <time>2013-12-29T08:28:42Z</time>
      </trkpt>
      <trkpt lat="44.66771" lon="0.86645">
        <ele>186.15</ele>
        <time>2013-12-29T08:28:55Z</time>
      </trkpt>
      <trkpt lat="44.66742" lon="0.86678">
        <ele>182.79</ele>
        <time>2013-12-29T08:29:05Z</time>
      </trkpt>
      <trkpt lat="44.66732" lon="0.8669">
        <ele>181.83</ele>
        <time>2013-12-29T08:29:13Z</time>
      </trkpt>
      <trkpt lat="44.66716" lon="0.86714">
        <ele>180.38</ele>
        <time>2013-12-29T08:29:28Z</time>
      </trkpt>
      <trkpt lat="44.66714" lon="0.86719">
        <ele>179.9</ele>
        <time>2013-12-29T08:29:30Z</time>
      </trkpt>
      <trkpt lat="44.6671" lon="0.86733">
        <ele>179.42</ele>
        <time>2013-12-29T08:29:35Z</time>
      </trkpt>
      <trkpt lat="44.66701" lon="0.86749">
        <ele>180.38</ele>
        <time>2013-12-29T08:29:42Z</time>
      </trkpt>
      <trkpt lat="44.66696" lon="0.86753">
        <ele>179.9</ele>
        <time>2013-12-29T08:29:55Z</time>
      </trkpt>
      <trkpt lat="44.66696" lon="0.86761">
        <ele>174.62</ele>
        <time>2013-12-29T08:30:15Z</time>
      </trkpt>
      <trkpt lat="44.66687" lon="0.86761">
        <ele>175.1</ele>
        <time>2013-12-29T08:30:20Z</time>
      </trkpt>
      <trkpt lat="44.66655" lon="0.86736">
        <ele>174.14</ele>
        <time>2013-12-29T08:30:32Z</time>
      </trkpt>
      <trkpt lat="44.66624" lon="0.86714">
        <ele>174.14</ele>
        <time>2013-12-29T08:30:44Z</time>
      </trkpt>
      <trkpt lat="44.66589" lon="0.86733">
        <ele>175.1</ele>
        <time>2013-12-29T08:30:56Z</time>
      </trkpt>
      <trkpt lat="44.66541" lon="0.86761">
        <ele>177.02</ele>
        <time>2013-12-29T08:31:08Z</time>
      </trkpt>
      <trkpt lat="44.66481" lon="0.86808">
        <ele>178.46</ele>
        <time>2013-12-29T08:31:23Z</time>
      </trkpt>
      <trkpt lat="44.66446" lon="0.86844">
        <ele>178.94</ele>
        <time>2013-12-29T08:31:35Z</time>
      </trkpt>
      <trkpt lat="44.66399" lon="0.86908">
        <ele>170.29</ele>
        <time>2013-12-29T08:31:51Z</time>
      </trkpt>
      <trkpt lat="44.66373" lon="0.86952">
        <ele>165.96</ele>
        <time>2013-12-29T08:32:05Z</time>
      </trkpt>
      <trkpt lat="44.66353" lon="0.87016">
        <ele>162.6</ele>
        <time>2013-12-29T08:32:17Z</time>
      </trkpt>
      <trkpt lat="44.66352" lon="0.87039">
        <ele>161.64</ele>
        <time>2013-12-29T08:32:21Z</time>
      </trkpt>
      <trkpt lat="44.66325" lon="0.87134">
        <ele>154.91</ele>
        <time>2013-12-29T08:32:34Z</time>
      </trkpt>
      <trkpt lat="44.66274" lon="0.87225">
        <ele>145.3</ele>
        <time>2013-12-29T08:32:46Z</time>
      </trkpt>
      <trkpt lat="44.66249" lon="0.8729">
        <ele>138.57</ele>
        <time>2013-12-29T08:32:56Z</time>
      </trkpt>
      <trkpt lat="44.66245" lon="0.87305">
        <ele>136.64</ele>
        <time>2013-12-29T08:33:02Z</time>
      </trkpt>
      <trkpt lat="44.66248" lon="0.87326">
        <ele>136.16</ele>
        <time>2013-12-29T08:33:07Z</time>
      </trkpt>
      <trkpt lat="44.66279" lon="0.87408">
        <ele>135.68</ele>
        <time>2013-12-29T08:33:24Z</time>
      </trkpt>
      <trkpt lat="44.66319" lon="0.87453">
        <ele>135.2</ele>
        <time>2013-12-29T08:33:38Z</time>
      </trkpt>
      <trkpt lat="44.66314" lon="0.87476">
        <ele>134.72</ele>
        <time>2013-12-29T08:33:43Z</time>
      </trkpt>
      <trkpt lat="44.66266" lon="0.87526">
        <ele>133.28</ele>
        <time>2013-12-29T08:33:57Z</time>
      </trkpt>
      <trkpt lat="44.66197" lon="0.87544">
        <ele>132.32</ele>
        <time>2013-12-29T08:34:13Z</time>
      </trkpt>
      <trkpt lat="44.66138" lon="0.87524">
        <ele>133.28</ele>
        <time>2013-12-29T08:34:27Z</time>
      </trkpt>
      <trkpt lat="44.66097" lon="0.87517">
        <ele>134.72</ele>
        <time>2013-12-29T08:34:39Z</time>
      </trkpt>
      <trkpt lat="44.66059" lon="0.87529">
        <ele>138.09</ele>
        <time>2013-12-29T08:34:55Z</time>
      </trkpt>
      <trkpt lat="44.66028" lon="0.8751">
        <ele>143.37</ele>
        <time>2013-12-29T08:35:10Z</time>
      </trkpt>
      <trkpt lat="44.6598" lon="0.87479">
        <ele>148.66</ele>
        <time>2013-12-29T08:35:32Z</time>
      </trkpt>
      <trkpt lat="44.6595" lon="0.87451">
        <ele>152.03</ele>
        <time>2013-12-29T08:35:48Z</time>
      </trkpt>
      <trkpt lat="44.65919" lon="0.87441">
        <ele>156.83</ele>
        <time>2013-12-29T08:36:04Z</time>
      </trkpt>
      <trkpt lat="44.65889" lon="0.8745">
        <ele>163.08</ele>
        <time>2013-12-29T08:36:19Z</time>
      </trkpt>
      <trkpt lat="44.6586" lon="0.87453">
        <ele>165.48</ele>
        <time>2013-12-29T08:36:33Z</time>
      </trkpt>
      <trkpt lat="44.65828" lon="0.87454">
        <ele>168.37</ele>
        <time>2013-12-29T08:36:48Z</time>
      </trkpt>
      <trkpt lat="44.65808" lon="0.87436">
        <ele>172.69</ele>
        <time>2013-12-29T08:36:58Z</time>
      </trkpt>
      <trkpt lat="44.65782" lon="0.87408">
        <ele>181.35</ele>
        <time>2013-12-29T08:37:12Z</time>
      </trkpt>
      <trkpt lat="44.65783" lon="0.87373">
        <ele>186.63</ele>
        <time>2013-12-29T08:37:21Z</time>
      </trkpt>
      <trkpt lat="44.65764" lon="0.87348">
        <ele>191.92</ele>
        <time>2013-12-29T08:37:31Z</time>
      </trkpt>
      <trkpt lat="44.65724" lon="0.8733">
        <ele>200.09</ele>
        <time>2013-12-29T08:37:47Z</time>
      </trkpt>
      <trkpt lat="44.65684" lon="0.87304">
        <ele>202.49</ele>
        <time>2013-12-29T08:38:05Z</time>
      </trkpt>
      <trkpt lat="44.65662" lon="0.87288">
        <ele>202.49</ele>
        <time>2013-12-29T08:38:18Z</time>
      </trkpt>
      <trkpt lat="44.65633" lon="0.87254">
        <ele>202.98</ele>
        <time>2013-12-29T08:38:31Z</time>
      </trkpt>
      <trkpt lat="44.65618" lon="0.87185">
        <ele>207.3</ele>
        <time>2013-12-29T08:38:45Z</time>
      </trkpt>
      <trkpt lat="44.65613" lon="0.8717">
        <ele>209.22</ele>
        <time>2013-12-29T08:38:49Z</time>
      </trkpt>
      <trkpt lat="44.65595" lon="0.87176">
        <ele>210.67</ele>
        <time>2013-12-29T08:38:55Z</time>
      </trkpt>
      <trkpt lat="44.6555" lon="0.87219">
        <ele>209.7</ele>
        <time>2013-12-29T08:39:10Z</time>
      </trkpt>
      <trkpt lat="44.65515" lon="0.87281">
        <ele>208.74</ele>
        <time>2013-12-29T08:39:26Z</time>
      </trkpt>
      <trkpt lat="44.65495" lon="0.87342">
        <ele>209.7</ele>
        <time>2013-12-29T08:39:40Z</time>
      </trkpt>
      <trkpt lat="44.65476" lon="0.87395">
        <ele>210.67</ele>
        <time>2013-12-29T08:39:53Z</time>
      </trkpt>
      <trkpt lat="44.65453" lon="0.87464">
        <ele>214.03</ele>
        <time>2013-12-29T08:40:08Z</time>
      </trkpt>
      <trkpt lat="44.65424" lon="0.87513">
        <ele>217.4</ele>
        <time>2013-12-29T08:40:22Z</time>
      </trkpt>
      <trkpt lat="44.65401" lon="0.8757">
        <ele>214.99</ele>
        <time>2013-12-29T08:40:35Z</time>
      </trkpt>
      <trkpt lat="44.65368" lon="0.87663">
        <ele>205.86</ele>
        <time>2013-12-29T08:40:52Z</time>
      </trkpt>
      <trkpt lat="44.65344" lon="0.87735">
        <ele>209.22</ele>
        <time>2013-12-29T08:41:08Z</time>
      </trkpt>
      <trkpt lat="44.65328" lon="0.87801">
        <ele>210.67</ele>
        <time>2013-12-29T08:41:21Z</time>
      </trkpt>
      <trkpt lat="44.6531" lon="0.87884">
        <ele>208.74</ele>
        <time>2013-12-29T08:41:37Z</time>
      </trkpt>
      <trkpt lat="44.65297" lon="0.87992">
        <ele>202.01</ele>
        <time>2013-12-29T08:41:58Z</time>
      </trkpt>
      <trkpt lat="44.65288" lon="0.88062">
        <ele>202.49</ele>
        <time>2013-12-29T08:42:12Z</time>
      </trkpt>
      <trkpt lat="44.65277" lon="0.88137">
        <ele>202.49</ele>
        <time>2013-12-29T08:42:27Z</time>
      </trkpt>
      <trkpt lat="44.65263" lon="0.88208">
        <ele>202.49</ele>
        <time>2013-12-29T08:42:40Z</time>
      </trkpt>
      <trkpt lat="44.65258" lon="0.88291">
        <ele>203.46</ele>
        <time>2013-12-29T08:42:55Z</time>
      </trkpt>
      <trkpt lat="44.65253" lon="0.88364">
        <ele>206.82</ele>
        <time>2013-12-29T08:43:08Z</time>
      </trkpt>
      <trkpt lat="44.65249" lon="0.88448">
        <ele>206.82</ele>
        <time>2013-12-29T08:43:23Z</time>
      </trkpt>
      <trkpt lat="44.65248" lon="0.88515">
        <ele>204.9</ele>
        <time>2013-12-29T08:43:37Z</time>
      </trkpt>
      <trkpt lat="44.6524" lon="0.88564">
        <ele>203.94</ele>
        <time>2013-12-29T08:43:48Z</time>
      </trkpt>
      <trkpt lat="44.65231" lon="0.88588">
        <ele>203.46</ele>
        <time>2013-12-29T08:43:53Z</time>
      </trkpt>
      <trkpt lat="44.65209" lon="0.88613">
        <ele>202.49</ele>
        <time>2013-12-29T08:43:59Z</time>
      </trkpt>
      <trkpt lat="44.652" lon="0.88618">
        <ele>202.01</ele>
        <time>2013-12-29T08:44:01Z</time>
      </trkpt>
      <trkpt lat="44.65177" lon="0.88617">
        <ele>200.57</ele>
        <time>2013-12-29T08:44:05Z</time>
      </trkpt>
      <trkpt lat="44.65086" lon="0.88575">
        <ele>194.32</ele>
        <time>2013-12-29T08:44:17Z</time>
      </trkpt>
      <trkpt lat="44.64944" lon="0.88543">
        <ele>184.23</ele>
        <time>2013-12-29T08:44:31Z</time>
      </trkpt>
      <trkpt lat="44.64884" lon="0.88544">
        <ele>181.83</ele>
        <time>2013-12-29T08:44:40Z</time>
      </trkpt>
      <trkpt lat="44.64838" lon="0.88557">
        <ele>183.75</ele>
        <time>2013-12-29T08:44:53Z</time>
      </trkpt>
      <trkpt lat="44.6481" lon="0.88567">
        <ele>187.11</ele>
        <time>2013-12-29T08:45:06Z</time>
      </trkpt>
      <trkpt lat="44.64797" lon="0.88596">
        <ele>187.59</ele>
        <time>2013-12-29T08:45:18Z</time>
      </trkpt>
      <trkpt lat="44.64797" lon="0.8863">
        <ele>188.08</ele>
        <time>2013-12-29T08:45:32Z</time>
      </trkpt>
      <trkpt lat="44.64794" lon="0.88641">
        <ele>190.48</ele>
        <time>2013-12-29T08:45:49Z</time>
      </trkpt>
      <trkpt lat="44.64792" lon="0.88657">
        <ele>195.28</ele>
        <time>2013-12-29T08:46:08Z</time>
      </trkpt>
      <trkpt lat="44.64789" lon="0.88672">
        <ele>196.73</ele>
        <time>2013-12-29T08:46:23Z</time>
      </trkpt>
      <trkpt lat="44.64779" lon="0.88684">
        <ele>197.69</ele>
        <time>2013-12-29T08:46:40Z</time>
      </trkpt>
      <trkpt lat="44.64774" lon="0.887">
        <ele>200.09</ele>
        <time>2013-12-29T08:46:56Z</time>
      </trkpt>
      <trkpt lat="44.64762" lon="0.88712">
        <ele>204.9</ele>
        <time>2013-12-29T08:47:12Z</time>
      </trkpt>
      <trkpt lat="44.64754" lon="0.88723">
        <ele>207.3</ele>
        <time>2013-12-29T08:47:29Z</time>
      </trkpt>
      <trkpt lat="44.64751" lon="0.88729">
        <ele>207.78</ele>
        <time>2013-12-29T08:47:39Z</time>
      </trkpt>
      <trkpt lat="44.64733" lon="0.88733">
        <ele>211.63</ele>
        <time>2013-12-29T08:47:58Z</time>
      </trkpt>
      <trkpt lat="44.64729" lon="0.88733">
        <ele>212.59</ele>
        <time>2013-12-29T08:48:04Z</time>
      </trkpt>
      <trkpt lat="44.64701" lon="0.88733">
        <ele>215.95</ele>
        <time>2013-12-29T08:48:21Z</time>
      </trkpt>
      <trkpt lat="44.6468" lon="0.88755">
        <ele>218.36</ele>
        <time>2013-12-29T08:48:33Z</time>
      </trkpt>
      <trkpt lat="44.64672" lon="0.88765">
        <ele>218.84</ele>
        <time>2013-12-29T08:48:37Z</time>
      </trkpt>
      <trkpt lat="44.64657" lon="0.88808">
        <ele>221.24</ele>
        <time>2013-12-29T08:48:52Z</time>
      </trkpt>
      <trkpt lat="44.64639" lon="0.88844">
        <ele>222.2</ele>
        <time>2013-12-29T08:49:04Z</time>
      </trkpt>
      <trkpt lat="44.6463" lon="0.88895">
        <ele>218.36</ele>
        <time>2013-12-29T08:49:18Z</time>
      </trkpt>
      <trkpt lat="44.64628" lon="0.88925">
        <ele>216.91</ele>
        <time>2013-12-29T08:49:27Z</time>
      </trkpt>
      <trkpt lat="44.64612" lon="0.88924">
        <ele>214.99</ele>
        <time>2013-12-29T08:49:40Z</time>
      </trkpt>
      <trkpt lat="44.64611" lon="0.88925">
        <ele>212.11</ele>
        <time>2013-12-29T08:49:56Z</time>
      </trkpt>
      <trkpt lat="44.6461" lon="0.88925">
        <ele>211.63</ele>
        <time>2013-12-29T08:50:07Z</time>
      </trkpt>
      <trkpt lat="44.64589" lon="0.88902">
        <ele>212.11</ele>
        <time>2013-12-29T08:50:20Z</time>
      </trkpt>
      <trkpt lat="44.64561" lon="0.88883">
        <ele>212.11</ele>
        <time>2013-12-29T08:50:28Z</time>
      </trkpt>
      <trkpt lat="44.64539" lon="0.88891">
        <ele>211.15</ele>
        <time>2013-12-29T08:50:34Z</time>
      </trkpt>
      <trkpt lat="44.64494" lon="0.88969">
        <ele>211.15</ele>
        <time>2013-12-29T08:50:52Z</time>
      </trkpt>
      <trkpt lat="44.64446" lon="0.89043">
        <ele>212.11</ele>
        <time>2013-12-29T08:51:09Z</time>
      </trkpt>
      <trkpt lat="44.64372" lon="0.89115">
        <ele>211.15</ele>
        <time>2013-12-29T08:51:27Z</time>
      </trkpt>
      <trkpt lat="44.64303" lon="0.89182">
        <ele>212.59</ele>
        <time>2013-12-29T08:51:44Z</time>
      </trkpt>
      <trkpt lat="44.64231" lon="0.89252">
        <ele>216.43</ele>
        <time>2013-12-29T08:52:04Z</time>
      </trkpt>
      <trkpt lat="44.64168" lon="0.89312">
        <ele>219.32</ele>
        <time>2013-12-29T08:52:24Z</time>
      </trkpt>
      <trkpt lat="44.6414" lon="0.89338">
        <ele>222.68</ele>
        <time>2013-12-29T08:52:37Z</time>
      </trkpt>
      <trkpt lat="44.64112" lon="0.89367">
        <ele>226.53</ele>
        <time>2013-12-29T08:52:53Z</time>
      </trkpt>
      <trkpt lat="44.6408" lon="0.89401">
        <ele>229.89</ele>
        <time>2013-12-29T08:53:08Z</time>
      </trkpt>
      <trkpt lat="44.64049" lon="0.8943">
        <ele>230.37</ele>
        <time>2013-12-29T08:53:25Z</time>
      </trkpt>
      <trkpt lat="44.64048" lon="0.89431">
        <ele>230.85</ele>
        <time>2013-12-29T08:53:43Z</time>
      </trkpt>
      <trkpt lat="44.64048" lon="0.89429">
        <ele>230.85</ele>
        <time>2013-12-29T08:54:03Z</time>
      </trkpt>
      <trkpt lat="44.6405" lon="0.89433">
        <ele>231.81</ele>
        <time>2013-12-29T08:54:37Z</time>
      </trkpt>
      <trkpt lat="44.64051" lon="0.89431">
        <ele>229.41</ele>
        <time>2013-12-29T08:54:59Z</time>
      </trkpt>
      <trkpt lat="44.6405" lon="0.89432">
        <ele>228.45</ele>
        <time>2013-12-29T08:55:26Z</time>
      </trkpt>
      <trkpt lat="44.64047" lon="0.89433">
        <ele>229.89</ele>
        <time>2013-12-29T08:56:05Z</time>
      </trkpt>
      <trkpt lat="44.64046" lon="0.89431">
        <ele>228.93</ele>
        <time>2013-12-29T08:56:33Z</time>
      </trkpt>
      <trkpt lat="44.64043" lon="0.89429">
        <ele>228.93</ele>
        <time>2013-12-29T08:56:36Z</time>
      </trkpt>
      <trkpt lat="44.64045" lon="0.89387">
        <ele>230.37</ele>
        <time>2013-12-29T08:56:50Z</time>
      </trkpt>
      <trkpt lat="44.64047" lon="0.89345">
        <ele>231.33</ele>
        <time>2013-12-29T08:57:02Z</time>
      </trkpt>
      <trkpt lat="44.64052" lon="0.8928">
        <ele>228.93</ele>
        <time>2013-12-29T08:57:17Z</time>
      </trkpt>
      <trkpt lat="44.64044" lon="0.89224">
        <ele>227.97</ele>
        <time>2013-12-29T08:57:28Z</time>
      </trkpt>
      <trkpt lat="44.64042" lon="0.89219">
        <ele>227.97</ele>
        <time>2013-12-29T08:57:29Z</time>
      </trkpt>
      <trkpt lat="44.64031" lon="0.892">
        <ele>227.49</ele>
        <time>2013-12-29T08:57:33Z</time>
      </trkpt>
      <trkpt lat="44.64015" lon="0.89177">
        <ele>227.01</ele>
        <time>2013-12-29T08:57:38Z</time>
      </trkpt>
      <trkpt lat="44.63955" lon="0.89102">
        <ele>227.01</ele>
        <time>2013-12-29T08:57:55Z</time>
      </trkpt>
      <trkpt lat="44.63903" lon="0.89038">
        <ele>224.61</ele>
        <time>2013-12-29T08:58:10Z</time>
      </trkpt>
      <trkpt lat="44.6384" lon="0.88962">
        <ele>223.64</ele>
        <time>2013-12-29T08:58:28Z</time>
      </trkpt>
      <trkpt lat="44.63791" lon="0.88878">
        <ele>223.16</ele>
        <time>2013-12-29T08:58:44Z</time>
      </trkpt>
      <trkpt lat="44.63787" lon="0.88865">
        <ele>223.64</ele>
        <time>2013-12-29T08:58:46Z</time>
      </trkpt>
      <trkpt lat="44.63761" lon="0.88797">
        <ele>225.09</ele>
        <time>2013-12-29T08:58:58Z</time>
      </trkpt>
      <trkpt lat="44.63732" lon="0.88734">
        <ele>225.57</ele>
        <time>2013-12-29T08:59:09Z</time>
      </trkpt>
      <trkpt lat="44.6372" lon="0.88711">
        <ele>225.57</ele>
        <time>2013-12-29T08:59:13Z</time>
      </trkpt>
      <trkpt lat="44.63703" lon="0.88693">
        <ele>226.05</ele>
        <time>2013-12-29T08:59:17Z</time>
      </trkpt>
      <trkpt lat="44.63671" lon="0.88674">
        <ele>225.09</ele>
        <time>2013-12-29T08:59:24Z</time>
      </trkpt>
      <trkpt lat="44.63653" lon="0.88659">
        <ele>224.12</ele>
        <time>2013-12-29T08:59:28Z</time>
      </trkpt>
      <trkpt lat="44.6363" lon="0.88624">
        <ele>223.64</ele>
        <time>2013-12-29T08:59:34Z</time>
      </trkpt>
      <trkpt lat="44.63589" lon="0.88519">
        <ele>222.2</ele>
        <time>2013-12-29T08:59:48Z</time>
      </trkpt>
      <trkpt lat="44.63576" lon="0.88485">
        <ele>220.76</ele>
        <time>2013-12-29T08:59:53Z</time>
      </trkpt>
      <trkpt lat="44.63564" lon="0.88492">
        <ele>219.8</ele>
        <time>2013-12-29T09:00:00Z</time>
      </trkpt>
      <trkpt lat="44.63572" lon="0.88564">
        <ele>217.4</ele>
        <time>2013-12-29T09:00:15Z</time>
      </trkpt>
      <trkpt lat="44.6357" lon="0.88644">
        <ele>218.84</ele>
        <time>2013-12-29T09:00:29Z</time>
      </trkpt>
      <trkpt lat="44.63558" lon="0.88733">
        <ele>219.8</ele>
        <time>2013-12-29T09:00:42Z</time>
      </trkpt>
      <trkpt lat="44.63557" lon="0.88772">
        <ele>220.76</ele>
        <time>2013-12-29T09:00:48Z</time>
      </trkpt>
      <trkpt lat="44.63564" lon="0.88828">
        <ele>222.2</ele>
        <time>2013-12-29T09:01:01Z</time>
      </trkpt>
      <trkpt lat="44.63581" lon="0.88872">
        <ele>220.76</ele>
        <time>2013-12-29T09:01:14Z</time>
      </trkpt>
      <trkpt lat="44.63615" lon="0.88951">
        <ele>216.91</ele>
        <time>2013-12-29T09:01:32Z</time>
      </trkpt>
      <trkpt lat="44.63642" lon="0.89017">
        <ele>210.67</ele>
        <time>2013-12-29T09:01:42Z</time>
      </trkpt>
      <trkpt lat="44.6364" lon="0.89041">
        <ele>206.34</ele>
        <time>2013-12-29T09:01:51Z</time>
      </trkpt>
      <trkpt lat="44.6364" lon="0.89042">
        <ele>206.34</ele>
        <time>2013-12-29T09:01:52Z</time>
      </trkpt>
      <trkpt lat="44.6364" lon="0.89059">
        <ele>203.94</ele>
        <time>2013-12-29T09:02:00Z</time>
      </trkpt>
      <trkpt lat="44.63638" lon="0.89079">
        <ele>202.49</ele>
        <time>2013-12-29T09:02:12Z</time>
      </trkpt>
      <trkpt lat="44.63632" lon="0.89069">
        <ele>202.49</ele>
        <time>2013-12-29T09:02:26Z</time>
      </trkpt>
      <trkpt lat="44.63625" lon="0.89064">
        <ele>202.98</ele>
        <time>2013-12-29T09:02:31Z</time>
      </trkpt>
      <trkpt lat="44.63599" lon="0.89093">
        <ele>204.42</ele>
        <time>2013-12-29T09:02:44Z</time>
      </trkpt>
      <trkpt lat="44.63571" lon="0.89111">
        <ele>206.82</ele>
        <time>2013-12-29T09:02:56Z</time>
      </trkpt>
      <trkpt lat="44.63564" lon="0.89114">
        <ele>206.34</ele>
        <time>2013-12-29T09:03:00Z</time>
      </trkpt>
      <trkpt lat="44.6353" lon="0.89142">
        <ele>204.9</ele>
        <time>2013-12-29T09:03:14Z</time>
      </trkpt>
      <trkpt lat="44.63487" lon="0.89185">
        <ele>207.78</ele>
        <time>2013-12-29T09:03:28Z</time>
      </trkpt>
      <trkpt lat="44.63445" lon="0.89236">
        <ele>206.82</ele>
        <time>2013-12-29T09:03:42Z</time>
      </trkpt>
      <trkpt lat="44.6344" lon="0.89248">
        <ele>206.82</ele>
        <time>2013-12-29T09:03:45Z</time>
      </trkpt>
      <trkpt lat="44.63432" lon="0.89257">
        <ele>205.86</ele>
        <time>2013-12-29T09:03:50Z</time>
      </trkpt>
      <trkpt lat="44.63401" lon="0.89295">
        <ele>206.82</ele>
        <time>2013-12-29T09:04:08Z</time>
      </trkpt>
      <trkpt lat="44.6337" lon="0.89351">
        <ele>202.01</ele>
        <time>2013-12-29T09:04:22Z</time>
      </trkpt>
      <trkpt lat="44.63325" lon="0.8939">
        <ele>194.8</ele>
        <time>2013-12-29T09:04:34Z</time>
      </trkpt>
      <trkpt lat="44.63321" lon="0.89392">
        <ele>192.88</ele>
        <time>2013-12-29T09:04:36Z</time>
      </trkpt>
      <trkpt lat="44.63297" lon="0.89429">
        <ele>185.67</ele>
        <time>2013-12-29T09:04:50Z</time>
      </trkpt>
      <trkpt lat="44.63274" lon="0.89453">
        <ele>180.38</ele>
        <time>2013-12-29T09:05:04Z</time>
      </trkpt>
      <trkpt lat="44.63262" lon="0.89459">
        <ele>179.9</ele>
        <time>2013-12-29T09:05:17Z</time>
      </trkpt>
      <trkpt lat="44.63261" lon="0.89465">
        <ele>180.87</ele>
        <time>2013-12-29T09:05:28Z</time>
      </trkpt>
      <trkpt lat="44.63279" lon="0.89509">
        <ele>178.94</ele>
        <time>2013-12-29T09:05:43Z</time>
      </trkpt>
      <trkpt lat="44.63301" lon="0.89551">
        <ele>183.75</ele>
        <time>2013-12-29T09:06:01Z</time>
      </trkpt>
      <trkpt lat="44.63316" lon="0.89582">
        <ele>189.04</ele>
        <time>2013-12-29T09:06:14Z</time>
      </trkpt>
      <trkpt lat="44.63316" lon="0.89584">
        <ele>189.52</ele>
        <time>2013-12-29T09:06:15Z</time>
      </trkpt>
      <trkpt lat="44.63327" lon="0.89597">
        <ele>189.04</ele>
        <time>2013-12-29T09:06:21Z</time>
      </trkpt>
      <trkpt lat="44.6335" lon="0.89635">
        <ele>185.67</ele>
        <time>2013-12-29T09:06:31Z</time>
      </trkpt>
      <trkpt lat="44.63345" lon="0.89674">
        <ele>183.75</ele>
        <time>2013-12-29T09:06:43Z</time>
      </trkpt>
      <trkpt lat="44.63358" lon="0.89731">
        <ele>183.75</ele>
        <time>2013-12-29T09:06:59Z</time>
      </trkpt>
      <trkpt lat="44.63371" lon="0.89792">
        <ele>182.31</ele>
        <time>2013-12-29T09:07:15Z</time>
      </trkpt>
      <trkpt lat="44.63403" lon="0.89852">
        <ele>180.87</ele>
        <time>2013-12-29T09:07:33Z</time>
      </trkpt>
      <trkpt lat="44.63429" lon="0.89897">
        <ele>182.31</ele>
        <time>2013-12-29T09:07:48Z</time>
      </trkpt>
      <trkpt lat="44.63429" lon="0.89909">
        <ele>182.79</ele>
        <time>2013-12-29T09:07:52Z</time>
      </trkpt>
      <trkpt lat="44.63419" lon="0.89938">
        <ele>183.75</ele>
        <time>2013-12-29T09:08:00Z</time>
      </trkpt>
      <trkpt lat="44.634" lon="0.90008">
        <ele>186.63</ele>
        <time>2013-12-29T09:08:17Z</time>
      </trkpt>
      <trkpt lat="44.63404" lon="0.90052">
        <ele>189.04</ele>
        <time>2013-12-29T09:08:32Z</time>
      </trkpt>
      <trkpt lat="44.63399" lon="0.90098">
        <ele>188.08</ele>
        <time>2013-12-29T09:08:43Z</time>
      </trkpt>
      <trkpt lat="44.63387" lon="0.90142">
        <ele>186.63</ele>
        <time>2013-12-29T09:08:55Z</time>
      </trkpt>
      <trkpt lat="44.63394" lon="0.90183">
        <ele>191.92</ele>
        <time>2013-12-29T09:09:05Z</time>
      </trkpt>
      <trkpt lat="44.634" lon="0.90233">
        <ele>196.25</ele>
        <time>2013-12-29T09:09:19Z</time>
      </trkpt>
      <trkpt lat="44.634" lon="0.90235">
        <ele>196.73</ele>
        <time>2013-12-29T09:09:20Z</time>
      </trkpt>
      <trkpt lat="44.63402" lon="0.90251">
        <ele>197.69</ele>
        <time>2013-12-29T09:09:26Z</time>
      </trkpt>
      <trkpt lat="44.63405" lon="0.90262">
        <ele>198.17</ele>
        <time>2013-12-29T09:09:29Z</time>
      </trkpt>
      <trkpt lat="44.634" lon="0.90282">
        <ele>198.65</ele>
        <time>2013-12-29T09:09:34Z</time>
      </trkpt>
      <trkpt lat="44.63391" lon="0.90292">
        <ele>195.77</ele>
        <time>2013-12-29T09:09:49Z</time>
      </trkpt>
      <trkpt lat="44.63391" lon="0.90294">
        <ele>196.73</ele>
        <time>2013-12-29T09:10:16Z</time>
      </trkpt>
      <trkpt lat="44.63371" lon="0.90301">
        <ele>196.73</ele>
        <time>2013-12-29T09:10:30Z</time>
      </trkpt>
      <trkpt lat="44.63314" lon="0.90309">
        <ele>192.4</ele>
        <time>2013-12-29T09:10:42Z</time>
      </trkpt>
      <trkpt lat="44.63228" lon="0.90293">
        <ele>190.96</ele>
        <time>2013-12-29T09:11:01Z</time>
      </trkpt>
      <trkpt lat="44.63156" lon="0.90296">
        <ele>191.44</ele>
        <time>2013-12-29T09:11:19Z</time>
      </trkpt>
      <trkpt lat="44.63093" lon="0.90301">
        <ele>192.88</ele>
        <time>2013-12-29T09:11:38Z</time>
      </trkpt>
      <trkpt lat="44.63041" lon="0.90306">
        <ele>198.17</ele>
        <time>2013-12-29T09:11:53Z</time>
      </trkpt>
      <trkpt lat="44.63032" lon="0.90307">
        <ele>199.13</ele>
        <time>2013-12-29T09:11:56Z</time>
      </trkpt>
      <trkpt lat="44.63024" lon="0.90318">
        <ele>200.57</ele>
        <time>2013-12-29T09:12:00Z</time>
      </trkpt>
      <trkpt lat="44.63014" lon="0.90331">
        <ele>200.57</ele>
        <time>2013-12-29T09:12:03Z</time>
      </trkpt>
      <trkpt lat="44.62985" lon="0.90399">
        <ele>201.05</ele>
        <time>2013-12-29T09:12:15Z</time>
      </trkpt>
      <trkpt lat="44.62963" lon="0.90472">
        <ele>203.46</ele>
        <time>2013-12-29T09:12:29Z</time>
      </trkpt>
      <trkpt lat="44.62926" lon="0.90519">
        <ele>206.82</ele>
        <time>2013-12-29T09:12:41Z</time>
      </trkpt>
      <trkpt lat="44.62904" lon="0.90525">
        <ele>206.34</ele>
        <time>2013-12-29T09:12:50Z</time>
      </trkpt>
      <trkpt lat="44.62881" lon="0.90553">
        <ele>204.9</ele>
        <time>2013-12-29T09:13:02Z</time>
      </trkpt>
      <trkpt lat="44.62848" lon="0.90601">
        <ele>205.86</ele>
        <time>2013-12-29T09:13:16Z</time>
      </trkpt>
      <trkpt lat="44.62811" lon="0.90635">
        <ele>209.7</ele>
        <time>2013-12-29T09:13:30Z</time>
      </trkpt>
      <trkpt lat="44.628" lon="0.90671">
        <ele>214.99</ele>
        <time>2013-12-29T09:13:42Z</time>
      </trkpt>
      <trkpt lat="44.62784" lon="0.90724">
        <ele>216.43</ele>
        <time>2013-12-29T09:13:58Z</time>
      </trkpt>
      <trkpt lat="44.62775" lon="0.9076">
        <ele>217.4</ele>
        <time>2013-12-29T09:14:13Z</time>
      </trkpt>
      <trkpt lat="44.62776" lon="0.90771">
        <ele>217.4</ele>
        <time>2013-12-29T09:14:27Z</time>
      </trkpt>
      <trkpt lat="44.62775" lon="0.90772">
        <ele>217.88</ele>
        <time>2013-12-29T09:14:43Z</time>
      </trkpt>
      <trkpt lat="44.62751" lon="0.908">
        <ele>223.16</ele>
        <time>2013-12-29T09:14:59Z</time>
      </trkpt>
      <trkpt lat="44.62722" lon="0.90824">
        <ele>230.85</ele>
        <time>2013-12-29T09:15:13Z</time>
      </trkpt>
      <trkpt lat="44.62678" lon="0.90859">
        <ele>239.02</ele>
        <time>2013-12-29T09:15:28Z</time>
      </trkpt>
      <trkpt lat="44.62636" lon="0.90875">
        <ele>246.72</ele>
        <time>2013-12-29T09:15:42Z</time>
      </trkpt>
      <trkpt lat="44.62599" lon="0.90897">
        <ele>255.85</ele>
        <time>2013-12-29T09:15:57Z</time>
      </trkpt>
      <trkpt lat="44.62565" lon="0.90921">
        <ele>264.98</ele>
        <time>2013-12-29T09:16:12Z</time>
      </trkpt>
      <trkpt lat="44.62539" lon="0.9096">
        <ele>258.73</ele>
        <time>2013-12-29T09:16:24Z</time>
      </trkpt>
      <trkpt lat="44.62523" lon="0.90989">
        <ele>254.89</ele>
        <time>2013-12-29T09:16:34Z</time>
      </trkpt>
      <trkpt lat="44.62499" lon="0.91038">
        <ele>254.41</ele>
        <time>2013-12-29T09:16:49Z</time>
      </trkpt>
      <trkpt lat="44.62468" lon="0.91073">
        <ele>255.37</ele>
        <time>2013-12-29T09:17:05Z</time>
      </trkpt>
      <trkpt lat="44.62456" lon="0.91082">
        <ele>256.33</ele>
        <time>2013-12-29T09:17:10Z</time>
      </trkpt>
      <trkpt lat="44.62442" lon="0.91128">
        <ele>257.29</ele>
        <time>2013-12-29T09:17:25Z</time>
      </trkpt>
      <trkpt lat="44.6244" lon="0.91149">
        <ele>257.77</ele>
        <time>2013-12-29T09:17:33Z</time>
      </trkpt>
      <trkpt lat="44.62444" lon="0.91158">
        <ele>258.73</ele>
        <time>2013-12-29T09:17:36Z</time>
      </trkpt>
      <trkpt lat="44.6244" lon="0.91208">
        <ele>256.81</ele>
        <time>2013-12-29T09:17:52Z</time>
      </trkpt>
      <trkpt lat="44.62439" lon="0.9121">
        <ele>257.29</ele>
        <time>2013-12-29T09:17:53Z</time>
      </trkpt>
      <trkpt lat="44.62432" lon="0.91221">
        <ele>258.25</ele>
        <time>2013-12-29T09:17:58Z</time>
      </trkpt>
      <trkpt lat="44.62407" lon="0.91257">
        <ele>257.77</ele>
        <time>2013-12-29T09:18:13Z</time>
      </trkpt>
      <trkpt lat="44.62399" lon="0.91265">
        <ele>255.37</ele>
        <time>2013-12-29T09:18:29Z</time>
      </trkpt>
      <trkpt lat="44.62396" lon="0.91265">
        <ele>253.44</ele>
        <time>2013-12-29T09:18:55Z</time>
      </trkpt>
      <trkpt lat="44.62394" lon="0.91263">
        <ele>252.96</ele>
        <time>2013-12-29T09:19:02Z</time>
      </trkpt>
      <trkpt lat="44.62374" lon="0.91222">
        <ele>248.64</ele>
        <time>2013-12-29T09:19:15Z</time>
      </trkpt>
      <trkpt lat="44.62331" lon="0.91147">
        <ele>247.2</ele>
        <time>2013-12-29T09:19:32Z</time>
      </trkpt>
      <trkpt lat="44.62289" lon="0.9109">
        <ele>248.16</ele>
        <time>2013-12-29T09:19:46Z</time>
      </trkpt>
      <trkpt lat="44.62249" lon="0.91011">
        <ele>244.79</ele>
        <time>2013-12-29T09:20:01Z</time>
      </trkpt>
      <trkpt lat="44.62225" lon="0.90936">
        <ele>242.87</ele>
        <time>2013-12-29T09:20:15Z</time>
      </trkpt>
      <trkpt lat="44.6221" lon="0.90862">
        <ele>242.39</ele>
        <time>2013-12-29T09:20:27Z</time>
      </trkpt>
      <trkpt lat="44.62196" lon="0.90776">
        <ele>241.91</ele>
        <time>2013-12-29T09:20:42Z</time>
      </trkpt>
      <trkpt lat="44.62188" lon="0.9075">
        <ele>243.83</ele>
        <time>2013-12-29T09:20:56Z</time>
      </trkpt>
      <trkpt lat="44.62187" lon="0.90746">
        <ele>245.27</ele>
        <time>2013-12-29T09:21:07Z</time>
      </trkpt>
      <trkpt lat="44.62187" lon="0.90747">
        <ele>245.27</ele>
        <time>2013-12-29T09:21:08Z</time>
      </trkpt>
      <trkpt lat="44.62187" lon="0.9075">
        <ele>244.79</ele>
        <time>2013-12-29T09:21:11Z</time>
      </trkpt>
      <trkpt lat="44.6219" lon="0.90734">
        <ele>244.79</ele>
        <time>2013-12-29T09:21:19Z</time>
      </trkpt>
      <trkpt lat="44.62202" lon="0.90666">
        <ele>245.27</ele>
        <time>2013-12-29T09:21:34Z</time>
      </trkpt>
      <trkpt lat="44.62207" lon="0.90651">
        <ele>245.27</ele>
        <time>2013-12-29T09:21:46Z</time>
      </trkpt>
      <trkpt lat="44.62207" lon="0.90642">
        <ele>245.75</ele>
        <time>2013-12-29T09:22:03Z</time>
      </trkpt>
      <trkpt lat="44.62215" lon="0.90594">
        <ele>243.35</ele>
        <time>2013-12-29T09:22:17Z</time>
      </trkpt>
      <trkpt lat="44.62222" lon="0.90548">
        <ele>241.43</ele>
        <time>2013-12-29T09:22:30Z</time>
      </trkpt>
      <trkpt lat="44.62232" lon="0.90481">
        <ele>239.99</ele>
        <time>2013-12-29T09:22:45Z</time>
      </trkpt>
      <trkpt lat="44.62245" lon="0.90408">
        <ele>236.14</ele>
        <time>2013-12-29T09:23:00Z</time>
      </trkpt>
      <trkpt lat="44.62261" lon="0.90335">
        <ele>230.37</ele>
        <time>2013-12-29T09:23:15Z</time>
      </trkpt>
      <trkpt lat="44.62283" lon="0.90273">
        <ele>224.12</ele>
        <time>2013-12-29T09:23:29Z</time>
      </trkpt>
      <trkpt lat="44.623" lon="0.90213">
        <ele>218.36</ele>
        <time>2013-12-29T09:23:43Z</time>
      </trkpt>
      <trkpt lat="44.62322" lon="0.9014">
        <ele>214.51</ele>
        <time>2013-12-29T09:23:58Z</time>
      </trkpt>
      <trkpt lat="44.62342" lon="0.90092">
        <ele>211.63</ele>
        <time>2013-12-29T09:24:11Z</time>
      </trkpt>
      <trkpt lat="44.62355" lon="0.90078">
        <ele>221.72</ele>
        <time>2013-12-29T09:24:25Z</time>
      </trkpt>
      <trkpt lat="44.62358" lon="0.90075">
        <ele>227.01</ele>
        <time>2013-12-29T09:24:41Z</time>
      </trkpt>
      <trkpt lat="44.62385" lon="0.90049">
        <ele>229.41</ele>
        <time>2013-12-29T09:24:53Z</time>
      </trkpt>
      <trkpt lat="44.62424" lon="0.90005">
        <ele>228.45</ele>
        <time>2013-12-29T09:25:08Z</time>
      </trkpt>
      <trkpt lat="44.62466" lon="0.89958">
        <ele>224.61</ele>
        <time>2013-12-29T09:25:23Z</time>
      </trkpt>
      <trkpt lat="44.62488" lon="0.8993">
        <ele>221.72</ele>
        <time>2013-12-29T09:25:32Z</time>
      </trkpt>
      <trkpt lat="44.625" lon="0.89925">
        <ele>221.72</ele>
        <time>2013-12-29T09:25:37Z</time>
      </trkpt>
      <trkpt lat="44.62533" lon="0.89936">
        <ele>224.61</ele>
        <time>2013-12-29T09:25:53Z</time>
      </trkpt>
      <trkpt lat="44.62562" lon="0.89946">
        <ele>225.09</ele>
        <time>2013-12-29T09:26:07Z</time>
      </trkpt>
      <trkpt lat="44.62578" lon="0.89952">
        <ele>227.01</ele>
        <time>2013-12-29T09:26:16Z</time>
      </trkpt>
      <trkpt lat="44.62584" lon="0.89952">
        <ele>228.93</ele>
        <time>2013-12-29T09:26:26Z</time>
      </trkpt>
      <trkpt lat="44.62593" lon="0.89957">
        <ele>228.45</ele>
        <time>2013-12-29T09:26:34Z</time>
      </trkpt>
      <trkpt lat="44.62584" lon="0.89953">
        <ele>228.93</ele>
        <time>2013-12-29T09:26:39Z</time>
      </trkpt>
      <trkpt lat="44.62543" lon="0.89938">
        <ele>228.45</ele>
        <time>2013-12-29T09:26:55Z</time>
      </trkpt>
      <trkpt lat="44.62479" lon="0.89916">
        <ele>227.97</ele>
        <time>2013-12-29T09:27:11Z</time>
      </trkpt>
      <trkpt lat="44.62419" lon="0.89904">
        <ele>228.93</ele>
        <time>2013-12-29T09:27:26Z</time>
      </trkpt>
      <trkpt lat="44.62369" lon="0.89897">
        <ele>229.89</ele>
        <time>2013-12-29T09:27:35Z</time>
      </trkpt>
      <trkpt lat="44.62359" lon="0.89862">
        <ele>228.45</ele>
        <time>2013-12-29T09:27:42Z</time>
      </trkpt>
      <trkpt lat="44.62381" lon="0.89716">
        <ele>225.09</ele>
        <time>2013-12-29T09:28:01Z</time>
      </trkpt>
      <trkpt lat="44.62413" lon="0.89585">
        <ele>219.8</ele>
        <time>2013-12-29T09:28:18Z</time>
      </trkpt>
      <trkpt lat="44.62446" lon="0.89448">
        <ele>217.4</ele>
        <time>2013-12-29T09:28:36Z</time>
      </trkpt>
      <trkpt lat="44.62445" lon="0.89324">
        <ele>214.99</ele>
        <time>2013-12-29T09:28:54Z</time>
      </trkpt>
      <trkpt lat="44.62465" lon="0.89211">
        <ele>212.59</ele>
        <time>2013-12-29T09:29:05Z</time>
      </trkpt>
      <trkpt lat="44.62483" lon="0.89164">
        <ele>210.67</ele>
        <time>2013-12-29T09:29:09Z</time>
      </trkpt>
      <trkpt lat="44.62498" lon="0.89141">
        <ele>208.74</ele>
        <time>2013-12-29T09:29:12Z</time>
      </trkpt>
      <trkpt lat="44.62491" lon="0.89115">
        <ele>206.34</ele>
        <time>2013-12-29T09:29:19Z</time>
      </trkpt>
      <trkpt lat="44.62488" lon="0.89113">
        <ele>206.34</ele>
        <time>2013-12-29T09:29:20Z</time>
      </trkpt>
      <trkpt lat="44.62467" lon="0.89092">
        <ele>205.86</ele>
        <time>2013-12-29T09:29:28Z</time>
      </trkpt>
      <trkpt lat="44.62467" lon="0.89044">
        <ele>202.49</ele>
        <time>2013-12-29T09:29:35Z</time>
      </trkpt>
      <trkpt lat="44.62472" lon="0.89035">
        <ele>201.53</ele>
        <time>2013-12-29T09:29:36Z</time>
      </trkpt>
      <trkpt lat="44.62482" lon="0.8902">
        <ele>200.09</ele>
        <time>2013-12-29T09:29:38Z</time>
      </trkpt>
      <trkpt lat="44.62482" lon="0.88987">
        <ele>196.73</ele>
        <time>2013-12-29T09:29:44Z</time>
      </trkpt>
      <trkpt lat="44.62449" lon="0.88963">
        <ele>193.36</ele>
        <time>2013-12-29T09:29:51Z</time>
      </trkpt>
      <trkpt lat="44.6243" lon="0.88939">
        <ele>191.92</ele>
        <time>2013-12-29T09:29:56Z</time>
      </trkpt>
      <trkpt lat="44.62394" lon="0.8891">
        <ele>192.88</ele>
        <time>2013-12-29T09:30:08Z</time>
      </trkpt>
      <trkpt lat="44.62345" lon="0.88888">
        <ele>190.96</ele>
        <time>2013-12-29T09:30:23Z</time>
      </trkpt>
      <trkpt lat="44.62295" lon="0.88873">
        <ele>186.15</ele>
        <time>2013-12-29T09:30:32Z</time>
      </trkpt>
      <trkpt lat="44.62276" lon="0.88856">
        <ele>183.27</ele>
        <time>2013-12-29T09:30:37Z</time>
      </trkpt>
      <trkpt lat="44.62262" lon="0.88817">
        <ele>177.02</ele>
        <time>2013-12-29T09:30:51Z</time>
      </trkpt>
      <trkpt lat="44.62262" lon="0.88815">
        <ele>177.02</ele>
        <time>2013-12-29T09:31:08Z</time>
      </trkpt>
      <trkpt lat="44.62259" lon="0.88814">
        <ele>179.42</ele>
        <time>2013-12-29T09:31:23Z</time>
      </trkpt>
      <trkpt lat="44.62258" lon="0.88815">
        <ele>180.38</ele>
        <time>2013-12-29T09:31:26Z</time>
      </trkpt>
      <trkpt lat="44.62251" lon="0.88818">
        <ele>182.31</ele>
        <time>2013-12-29T09:31:31Z</time>
      </trkpt>
      <trkpt lat="44.62218" lon="0.88841">
        <ele>189.52</ele>
        <time>2013-12-29T09:31:49Z</time>
      </trkpt>
      <trkpt lat="44.62207" lon="0.88843">
        <ele>190.48</ele>
        <time>2013-12-29T09:32:02Z</time>
      </trkpt>
      <trkpt lat="44.62201" lon="0.88839">
        <ele>191.44</ele>
        <time>2013-12-29T09:32:10Z</time>
      </trkpt>
      <trkpt lat="44.62191" lon="0.8882">
        <ele>195.28</ele>
        <time>2013-12-29T09:32:26Z</time>
      </trkpt>
      <trkpt lat="44.62195" lon="0.88802">
        <ele>198.65</ele>
        <time>2013-12-29T09:32:43Z</time>
      </trkpt>
      <trkpt lat="44.622" lon="0.88788">
        <ele>201.05</ele>
        <time>2013-12-29T09:32:59Z</time>
      </trkpt>
      <trkpt lat="44.62201" lon="0.88787">
        <ele>201.05</ele>
        <time>2013-12-29T09:33:00Z</time>
      </trkpt>
      <trkpt lat="44.62203" lon="0.88767">
        <ele>199.61</ele>
        <time>2013-12-29T09:33:06Z</time>
      </trkpt>
      <trkpt lat="44.62205" lon="0.88708">
        <ele>198.17</ele>
        <time>2013-12-29T09:33:20Z</time>
      </trkpt>
      <trkpt lat="44.622" lon="0.88631">
        <ele>196.25</ele>
        <time>2013-12-29T09:33:33Z</time>
      </trkpt>
      <trkpt lat="44.62206" lon="0.88548">
        <ele>189.04</ele>
        <time>2013-12-29T09:33:47Z</time>
      </trkpt>
      <trkpt lat="44.62189" lon="0.8851">
        <ele>184.71</ele>
        <time>2013-12-29T09:33:57Z</time>
      </trkpt>
      <trkpt lat="44.62168" lon="0.88497">
        <ele>183.27</ele>
        <time>2013-12-29T09:34:03Z</time>
      </trkpt>
      <trkpt lat="44.62159" lon="0.8848">
        <ele>178.94</ele>
        <time>2013-12-29T09:34:13Z</time>
      </trkpt>
      <trkpt lat="44.62159" lon="0.88479">
        <ele>178.94</ele>
        <time>2013-12-29T09:34:18Z</time>
      </trkpt>
      <trkpt lat="44.62174" lon="0.88437">
        <ele>177.98</ele>
        <time>2013-12-29T09:34:31Z</time>
      </trkpt>
      <trkpt lat="44.62184" lon="0.88402">
        <ele>176.54</ele>
        <time>2013-12-29T09:34:43Z</time>
      </trkpt>
      <trkpt lat="44.6217" lon="0.88416">
        <ele>174.14</ele>
        <time>2013-12-29T09:34:54Z</time>
      </trkpt>
      <trkpt lat="44.62167" lon="0.88416">
        <ele>174.14</ele>
        <time>2013-12-29T09:34:56Z</time>
      </trkpt>
      <trkpt lat="44.6214" lon="0.88404">
        <ele>179.9</ele>
        <time>2013-12-29T09:35:12Z</time>
      </trkpt>
      <trkpt lat="44.62109" lon="0.88415">
        <ele>185.19</ele>
        <time>2013-12-29T09:35:28Z</time>
      </trkpt>
      <trkpt lat="44.62086" lon="0.8843">
        <ele>189.04</ele>
        <time>2013-12-29T09:35:46Z</time>
      </trkpt>
      <trkpt lat="44.6207" lon="0.8846">
        <ele>194.32</ele>
        <time>2013-12-29T09:36:02Z</time>
      </trkpt>
      <trkpt lat="44.62048" lon="0.8847">
        <ele>200.09</ele>
        <time>2013-12-29T09:36:18Z</time>
      </trkpt>
      <trkpt lat="44.62032" lon="0.88461">
        <ele>202.49</ele>
        <time>2013-12-29T09:36:30Z</time>
      </trkpt>
      <trkpt lat="44.62009" lon="0.88439">
        <ele>203.94</ele>
        <time>2013-12-29T09:36:44Z</time>
      </trkpt>
      <trkpt lat="44.61996" lon="0.88436">
        <ele>202.98</ele>
        <time>2013-12-29T09:36:52Z</time>
      </trkpt>
      <trkpt lat="44.61966" lon="0.88451">
        <ele>203.46</ele>
        <time>2013-12-29T09:37:11Z</time>
      </trkpt>
      <trkpt lat="44.61942" lon="0.88462">
        <ele>206.34</ele>
        <time>2013-12-29T09:37:30Z</time>
      </trkpt>
      <trkpt lat="44.61932" lon="0.88477">
        <ele>205.86</ele>
        <time>2013-12-29T09:37:41Z</time>
      </trkpt>
      <trkpt lat="44.61922" lon="0.88505">
        <ele>206.34</ele>
        <time>2013-12-29T09:37:59Z</time>
      </trkpt>
      <trkpt lat="44.61916" lon="0.88524">
        <ele>206.34</ele>
        <time>2013-12-29T09:38:10Z</time>
      </trkpt>
      <trkpt lat="44.61923" lon="0.88543">
        <ele>205.38</ele>
        <time>2013-12-29T09:38:28Z</time>
      </trkpt>
      <trkpt lat="44.61925" lon="0.88543">
        <ele>203.94</ele>
        <time>2013-12-29T09:38:44Z</time>
      </trkpt>
      <trkpt lat="44.61915" lon="0.8855">
        <ele>205.38</ele>
        <time>2013-12-29T09:39:05Z</time>
      </trkpt>
      <trkpt lat="44.61916" lon="0.88556">
        <ele>206.82</ele>
        <time>2013-12-29T09:39:23Z</time>
      </trkpt>
      <trkpt lat="44.6192" lon="0.88559">
        <ele>206.34</ele>
        <time>2013-12-29T09:39:41Z</time>
      </trkpt>
      <trkpt lat="44.6192" lon="0.8857">
        <ele>207.3</ele>
        <time>2013-12-29T09:39:57Z</time>
      </trkpt>
      <trkpt lat="44.61931" lon="0.88583">
        <ele>205.38</ele>
        <time>2013-12-29T09:40:15Z</time>
      </trkpt>
      <trkpt lat="44.61939" lon="0.88583">
        <ele>205.86</ele>
        <time>2013-12-29T09:40:30Z</time>
      </trkpt>
      <trkpt lat="44.61946" lon="0.88579">
        <ele>206.34</ele>
        <time>2013-12-29T09:40:46Z</time>
      </trkpt>
      <trkpt lat="44.61949" lon="0.88579">
        <ele>209.22</ele>
        <time>2013-12-29T09:41:03Z</time>
      </trkpt>
      <trkpt lat="44.61952" lon="0.88583">
        <ele>206.82</ele>
        <time>2013-12-29T09:41:15Z</time>
      </trkpt>
      <trkpt lat="44.61958" lon="0.88592">
        <ele>201.53</ele>
        <time>2013-12-29T09:41:30Z</time>
      </trkpt>
      <trkpt lat="44.61958" lon="0.88593">
        <ele>201.53</ele>
        <time>2013-12-29T09:41:31Z</time>
      </trkpt>
      <trkpt lat="44.61961" lon="0.88599">
        <ele>200.09</ele>
        <time>2013-12-29T09:41:39Z</time>
      </trkpt>
      <trkpt lat="44.61967" lon="0.88597">
        <ele>199.61</ele>
        <time>2013-12-29T09:41:43Z</time>
      </trkpt>
      <trkpt lat="44.61991" lon="0.88569">
        <ele>195.28</ele>
        <time>2013-12-29T09:41:57Z</time>
      </trkpt>
      <trkpt lat="44.62031" lon="0.88524">
        <ele>193.36</ele>
        <time>2013-12-29T09:42:07Z</time>
      </trkpt>
      <trkpt lat="44.62066" lon="0.88464">
        <ele>190.48</ele>
        <time>2013-12-29T09:42:18Z</time>
      </trkpt>
      <trkpt lat="44.62079" lon="0.88437">
        <ele>188.56</ele>
        <time>2013-12-29T09:42:23Z</time>
      </trkpt>
      <trkpt lat="44.62096" lon="0.88424">
        <ele>187.11</ele>
        <time>2013-12-29T09:42:27Z</time>
      </trkpt>
      <trkpt lat="44.62135" lon="0.88407">
        <ele>183.75</ele>
        <time>2013-12-29T09:42:36Z</time>
      </trkpt>
      <trkpt lat="44.62149" lon="0.8841">
        <ele>182.31</ele>
        <time>2013-12-29T09:42:39Z</time>
      </trkpt>
      <trkpt lat="44.62165" lon="0.88421">
        <ele>180.87</ele>
        <time>2013-12-29T09:42:43Z</time>
      </trkpt>
      <trkpt lat="44.6218" lon="0.88406">
        <ele>177.98</ele>
        <time>2013-12-29T09:42:49Z</time>
      </trkpt>
      <trkpt lat="44.6221" lon="0.88391">
        <ele>174.62</ele>
        <time>2013-12-29T09:42:55Z</time>
      </trkpt>
      <trkpt lat="44.62228" lon="0.88359">
        <ele>171.73</ele>
        <time>2013-12-29T09:43:02Z</time>
      </trkpt>
      <trkpt lat="44.6224" lon="0.88321">
        <ele>166.45</ele>
        <time>2013-12-29T09:43:12Z</time>
      </trkpt>
      <trkpt lat="44.6227" lon="0.88302">
        <ele>160.2</ele>
        <time>2013-12-29T09:43:25Z</time>
      </trkpt>
      <trkpt lat="44.6231" lon="0.88295">
        <ele>159.24</ele>
        <time>2013-12-29T09:43:38Z</time>
      </trkpt>
      <trkpt lat="44.62354" lon="0.88274">
        <ele>159.72</ele>
        <time>2013-12-29T09:43:54Z</time>
      </trkpt>
      <trkpt lat="44.62391" lon="0.88207">
        <ele>160.2</ele>
        <time>2013-12-29T09:44:13Z</time>
      </trkpt>
      <trkpt lat="44.62397" lon="0.88197">
        <ele>161.16</ele>
        <time>2013-12-29T09:44:16Z</time>
      </trkpt>
      <trkpt lat="44.62405" lon="0.88201">
        <ele>163.08</ele>
        <time>2013-12-29T09:44:21Z</time>
      </trkpt>
      <trkpt lat="44.62425" lon="0.88237">
        <ele>166.93</ele>
        <time>2013-12-29T09:44:35Z</time>
      </trkpt>
      <trkpt lat="44.62456" lon="0.88232">
        <ele>168.37</ele>
        <time>2013-12-29T09:44:49Z</time>
      </trkpt>
      <trkpt lat="44.62477" lon="0.88202">
        <ele>168.85</ele>
        <time>2013-12-29T09:45:03Z</time>
      </trkpt>
      <trkpt lat="44.62504" lon="0.88209">
        <ele>172.21</ele>
        <time>2013-12-29T09:45:17Z</time>
      </trkpt>
      <trkpt lat="44.62513" lon="0.88216">
        <ele>174.62</ele>
        <time>2013-12-29T09:45:24Z</time>
      </trkpt>
      <trkpt lat="44.62544" lon="0.88227">
        <ele>180.87</ele>
        <time>2013-12-29T09:45:41Z</time>
      </trkpt>
      <trkpt lat="44.6258" lon="0.88207">
        <ele>182.31</ele>
        <time>2013-12-29T09:45:59Z</time>
      </trkpt>
      <trkpt lat="44.62606" lon="0.88194">
        <ele>184.23</ele>
        <time>2013-12-29T09:46:12Z</time>
      </trkpt>
      <trkpt lat="44.62634" lon="0.88171">
        <ele>185.67</ele>
        <time>2013-12-29T09:46:27Z</time>
      </trkpt>
      <trkpt lat="44.62652" lon="0.88148">
        <ele>189.52</ele>
        <time>2013-12-29T09:46:42Z</time>
      </trkpt>
      <trkpt lat="44.62665" lon="0.88114">
        <ele>191.92</ele>
        <time>2013-12-29T09:46:58Z</time>
      </trkpt>
      <trkpt lat="44.62679" lon="0.88076">
        <ele>190.96</ele>
        <time>2013-12-29T09:47:12Z</time>
      </trkpt>
      <trkpt lat="44.62703" lon="0.88041">
        <ele>190</ele>
        <time>2013-12-29T09:47:26Z</time>
      </trkpt>
      <trkpt lat="44.62751" lon="0.87982">
        <ele>186.63</ele>
        <time>2013-12-29T09:47:43Z</time>
      </trkpt>
      <trkpt lat="44.62795" lon="0.87924">
        <ele>184.71</ele>
        <time>2013-12-29T09:47:59Z</time>
      </trkpt>
      <trkpt lat="44.62826" lon="0.8788">
        <ele>186.15</ele>
        <time>2013-12-29T09:48:15Z</time>
      </trkpt>
      <trkpt lat="44.62853" lon="0.87891">
        <ele>189.52</ele>
        <time>2013-12-29T09:48:27Z</time>
      </trkpt>
      <trkpt lat="44.6288" lon="0.87901">
        <ele>193.84</ele>
        <time>2013-12-29T09:48:41Z</time>
      </trkpt>
      <trkpt lat="44.62907" lon="0.87884">
        <ele>194.8</ele>
        <time>2013-12-29T09:48:56Z</time>
      </trkpt>
      <trkpt lat="44.62942" lon="0.87859">
        <ele>194.8</ele>
        <time>2013-12-29T09:49:13Z</time>
      </trkpt>
      <trkpt lat="44.62956" lon="0.87822">
        <ele>195.28</ele>
        <time>2013-12-29T09:49:27Z</time>
      </trkpt>
      <trkpt lat="44.62958" lon="0.87819">
        <ele>195.28</ele>
        <time>2013-12-29T09:49:39Z</time>
      </trkpt>
      <trkpt lat="44.62958" lon="0.87819">
        <ele>194.8</ele>
        <time>2013-12-29T09:50:07Z</time>
      </trkpt>
      <trkpt lat="44.62958" lon="0.87819">
        <ele>193.84</ele>
        <time>2013-12-29T09:50:26Z</time>
      </trkpt>
      <trkpt lat="44.62957" lon="0.87819">
        <ele>195.77</ele>
        <time>2013-12-29T09:50:40Z</time>
      </trkpt>
      <trkpt lat="44.62959" lon="0.8782">
        <ele>195.77</ele>
        <time>2013-12-29T09:50:57Z</time>
      </trkpt>
      <trkpt lat="44.62959" lon="0.87819">
        <ele>196.25</ele>
        <time>2013-12-29T09:51:05Z</time>
      </trkpt>
      <trkpt lat="44.62971" lon="0.87771">
        <ele>195.77</ele>
        <time>2013-12-29T09:51:20Z</time>
      </trkpt>
      <trkpt lat="44.62979" lon="0.87677">
        <ele>197.21</ele>
        <time>2013-12-29T09:51:38Z</time>
      </trkpt>
      <trkpt lat="44.62939" lon="0.87629">
        <ele>195.77</ele>
        <time>2013-12-29T09:51:50Z</time>
      </trkpt>
      <trkpt lat="44.62861" lon="0.87558">
        <ele>193.36</ele>
        <time>2013-12-29T09:52:09Z</time>
      </trkpt>
      <trkpt lat="44.62872" lon="0.87547">
        <ele>190.96</ele>
        <time>2013-12-29T09:52:14Z</time>
      </trkpt>
      <trkpt lat="44.62961" lon="0.8753">
        <ele>188.08</ele>
        <time>2013-12-29T09:52:30Z</time>
      </trkpt>
      <trkpt lat="44.63037" lon="0.87507">
        <ele>186.63</ele>
        <time>2013-12-29T09:52:44Z</time>
      </trkpt>
      <trkpt lat="44.63063" lon="0.87471">
        <ele>187.11</ele>
        <time>2013-12-29T09:52:52Z</time>
      </trkpt>
      <trkpt lat="44.63071" lon="0.87376">
        <ele>192.4</ele>
        <time>2013-12-29T09:53:10Z</time>
      </trkpt>
      <trkpt lat="44.63075" lon="0.87278">
        <ele>198.65</ele>
        <time>2013-12-29T09:53:31Z</time>
      </trkpt>
      <trkpt lat="44.6308" lon="0.87218">
        <ele>202.01</ele>
        <time>2013-12-29T09:53:48Z</time>
      </trkpt>
      <trkpt lat="44.63088" lon="0.8716">
        <ele>205.38</ele>
        <time>2013-12-29T09:54:07Z</time>
      </trkpt>
      <trkpt lat="44.63087" lon="0.87151">
        <ele>206.82</ele>
        <time>2013-12-29T09:54:19Z</time>
      </trkpt>
      <trkpt lat="44.63087" lon="0.8715">
        <ele>206.82</ele>
        <time>2013-12-29T09:54:34Z</time>
      </trkpt>
      <trkpt lat="44.63084" lon="0.87153">
        <ele>205.86</ele>
        <time>2013-12-29T09:54:47Z</time>
      </trkpt>
      <trkpt lat="44.63085" lon="0.87154">
        <ele>205.38</ele>
        <time>2013-12-29T09:54:50Z</time>
      </trkpt>
      <trkpt lat="44.63085" lon="0.87153">
        <ele>204.42</ele>
        <time>2013-12-29T09:55:00Z</time>
      </trkpt>
    </trkseg>
  </trk>
</gpx>